<?xml version="1.0" encoding="UTF-8" standalone="no" ?>
<gpx xmlns="http://www.topografix.com/GPX/1/1" xmlns:xsi="http://www.w3.org/2001/XMLSchema-instance" xsi:schemaLocation="http://www.topografix.com/GPX/1/1 http://www.topografix.com/GPX/1/1/gpx.xsd" version="1.1" creator="VisuGPX - https://www.visugpx.com">
  <metadata>
    <name>Maxirace2012</name>
    <desc><![CDATA[Parcours de la maxi race 2012]]></desc>
  </metadata>
  <trk>
    <name><![CDATA[Maxi Race 2012 FM 2011]]></name>
    <desc><![CDATA[Maxi Race 2012 FM 2011]]></desc>
    <trkseg>
      <trkpt lat="45.9058" lon="6.15499">
        <ele>450</ele>
        <time>2011-05-27T03:20:00Z</time>
      </trkpt>
      <trkpt lat="45.9058" lon="6.15442">
        <ele>450</ele>
        <time>2011-05-27T03:20:21Z</time>
      </trkpt>
      <trkpt lat="45.9051" lon="6.1504">
        <ele>450</ele>
        <time>2011-05-27T03:22:54Z</time>
      </trkpt>
      <trkpt lat="45.9046" lon="6.14653">
        <ele>459</ele>
        <time>2011-05-27T03:25:36Z</time>
      </trkpt>
      <trkpt lat="45.9046" lon="6.14537">
        <ele>457</ele>
        <time>2011-05-27T03:26:17Z</time>
      </trkpt>
      <trkpt lat="45.905" lon="6.1434">
        <ele>453</ele>
        <time>2011-05-27T03:27:29Z</time>
      </trkpt>
      <trkpt lat="45.905" lon="6.14253">
        <ele>451</ele>
        <time>2011-05-27T03:27:59Z</time>
      </trkpt>
      <trkpt lat="45.9046" lon="6.14098">
        <ele>452</ele>
        <time>2011-05-27T03:29:02Z</time>
      </trkpt>
      <trkpt lat="45.9043" lon="6.13929">
        <ele>460</ele>
        <time>2011-05-27T03:30:24Z</time>
      </trkpt>
      <trkpt lat="45.904" lon="6.13863">
        <ele>460</ele>
        <time>2011-05-27T03:30:52Z</time>
      </trkpt>
      <trkpt lat="45.9038" lon="6.13772">
        <ele>460</ele>
        <time>2011-05-27T03:31:27Z</time>
      </trkpt>
      <trkpt lat="45.9035" lon="6.13663">
        <ele>447</ele>
        <time>2011-05-27T03:32:13Z</time>
      </trkpt>
      <trkpt lat="45.903" lon="6.13525">
        <ele>457</ele>
        <time>2011-05-27T03:33:34Z</time>
      </trkpt>
      <trkpt lat="45.9021" lon="6.13403">
        <ele>454</ele>
        <time>2011-05-27T03:34:36Z</time>
      </trkpt>
      <trkpt lat="45.9012" lon="6.13252">
        <ele>447</ele>
        <time>2011-05-27T03:35:44Z</time>
      </trkpt>
      <trkpt lat="45.9003" lon="6.1316">
        <ele>456</ele>
        <time>2011-05-27T03:37:01Z</time>
      </trkpt>
      <trkpt lat="45.9" lon="6.13151">
        <ele>456</ele>
        <time>2011-05-27T03:37:23Z</time>
      </trkpt>
      <trkpt lat="45.8996" lon="6.13127">
        <ele>456</ele>
        <time>2011-05-27T03:37:49Z</time>
      </trkpt>
      <trkpt lat="45.8991" lon="6.13055">
        <ele>455</ele>
        <time>2011-05-27T03:38:26Z</time>
      </trkpt>
      <trkpt lat="45.8987" lon="6.12996">
        <ele>451</ele>
        <time>2011-05-27T03:38:54Z</time>
      </trkpt>
      <trkpt lat="45.8985" lon="6.12937">
        <ele>451</ele>
        <time>2011-05-27T03:39:19Z</time>
      </trkpt>
      <trkpt lat="45.8981" lon="6.13009">
        <ele>451</ele>
        <time>2011-05-27T03:40:07Z</time>
      </trkpt>
      <trkpt lat="45.8981" lon="6.1313">
        <ele>449</ele>
        <time>2011-05-27T03:40:50Z</time>
      </trkpt>
      <trkpt lat="45.8981" lon="6.13212">
        <ele>448</ele>
        <time>2011-05-27T03:41:20Z</time>
      </trkpt>
      <trkpt lat="45.8976" lon="6.13323">
        <ele>453</ele>
        <time>2011-05-27T03:42:18Z</time>
      </trkpt>
      <trkpt lat="45.8963" lon="6.13473">
        <ele>447</ele>
        <time>2011-05-27T03:43:40Z</time>
      </trkpt>
      <trkpt lat="45.8955" lon="6.13344">
        <ele>450</ele>
        <time>2011-05-27T03:44:53Z</time>
      </trkpt>
      <trkpt lat="45.8958" lon="6.13302">
        <ele>450</ele>
        <time>2011-05-27T03:45:16Z</time>
      </trkpt>
      <trkpt lat="45.8954" lon="6.13283">
        <ele>466</ele>
        <time>2011-05-27T03:46:44Z</time>
      </trkpt>
      <trkpt lat="45.8947" lon="6.1332">
        <ele>453</ele>
        <time>2011-05-27T03:47:28Z</time>
      </trkpt>
      <trkpt lat="45.8942" lon="6.13304">
        <ele>466</ele>
        <time>2011-05-27T03:48:40Z</time>
      </trkpt>
      <trkpt lat="45.8934" lon="6.13268">
        <ele>485</ele>
        <time>2011-05-27T03:50:28Z</time>
      </trkpt>
      <trkpt lat="45.8927" lon="6.13263">
        <ele>507</ele>
        <time>2011-05-27T03:52:30Z</time>
      </trkpt>
      <trkpt lat="45.8923" lon="6.13247">
        <ele>507</ele>
        <time>2011-05-27T03:52:52Z</time>
      </trkpt>
      <trkpt lat="45.892" lon="6.13278">
        <ele>516</ele>
        <time>2011-05-27T03:53:42Z</time>
      </trkpt>
      <trkpt lat="45.8913" lon="6.13239">
        <ele>516</ele>
        <time>2011-05-27T03:54:24Z</time>
      </trkpt>
      <trkpt lat="45.8905" lon="6.13233">
        <ele>522</ele>
        <time>2011-05-27T03:55:19Z</time>
      </trkpt>
      <trkpt lat="45.8902" lon="6.13257">
        <ele>549</ele>
        <time>2011-05-27T03:56:54Z</time>
      </trkpt>
      <trkpt lat="45.8901" lon="6.13198">
        <ele>549</ele>
        <time>2011-05-27T03:57:18Z</time>
      </trkpt>
      <trkpt lat="45.8903" lon="6.1312">
        <ele>550</ele>
        <time>2011-05-27T03:57:50Z</time>
      </trkpt>
      <trkpt lat="45.8903" lon="6.13061">
        <ele>550</ele>
        <time>2011-05-27T03:58:12Z</time>
      </trkpt>
      <trkpt lat="45.8901" lon="6.13008">
        <ele>555</ele>
        <time>2011-05-27T03:58:46Z</time>
      </trkpt>
      <trkpt lat="45.8902" lon="6.12908">
        <ele>552</ele>
        <time>2011-05-27T03:59:21Z</time>
      </trkpt>
      <trkpt lat="45.89" lon="6.1283">
        <ele>547</ele>
        <time>2011-05-27T03:59:51Z</time>
      </trkpt>
      <trkpt lat="45.8898" lon="6.12755">
        <ele>540</ele>
        <time>2011-05-27T04:00:22Z</time>
      </trkpt>
      <trkpt lat="45.8892" lon="6.12691">
        <ele>549</ele>
        <time>2011-05-27T04:01:23Z</time>
      </trkpt>
      <trkpt lat="45.8885" lon="6.1262">
        <ele>545</ele>
        <time>2011-05-27T04:02:18Z</time>
      </trkpt>
      <trkpt lat="45.8876" lon="6.12526">
        <ele>553</ele>
        <time>2011-05-27T04:03:30Z</time>
      </trkpt>
      <trkpt lat="45.8871" lon="6.12502">
        <ele>553</ele>
        <time>2011-05-27T04:03:58Z</time>
      </trkpt>
      <trkpt lat="45.8865" lon="6.12504">
        <ele>579</ele>
        <time>2011-05-27T04:06:21Z</time>
      </trkpt>
      <trkpt lat="45.886" lon="6.12519">
        <ele>607</ele>
        <time>2011-05-27T04:08:44Z</time>
      </trkpt>
      <trkpt lat="45.8858" lon="6.12477">
        <ele>607</ele>
        <time>2011-05-27T04:09:04Z</time>
      </trkpt>
      <trkpt lat="45.8854" lon="6.12435">
        <ele>566</ele>
        <time>2011-05-27T04:10:09Z</time>
      </trkpt>
      <trkpt lat="45.885" lon="6.12407">
        <ele>614</ele>
        <time>2011-05-27T04:12:25Z</time>
      </trkpt>
      <trkpt lat="45.8844" lon="6.12395">
        <ele>650</ele>
        <time>2011-05-27T04:14:43Z</time>
      </trkpt>
      <trkpt lat="45.8832" lon="6.12374">
        <ele>623</ele>
        <time>2011-05-27T04:16:09Z</time>
      </trkpt>
      <trkpt lat="45.8829" lon="6.12366">
        <ele>633.203</ele>
        <time>2011-05-27T04:17:05Z</time>
      </trkpt>
      <trkpt lat="45.882" lon="6.12338">
        <ele>672</ele>
        <time>2011-05-27T04:20:38Z</time>
      </trkpt>
      <trkpt lat="45.8811" lon="6.12332">
        <ele>687</ele>
        <time>2011-05-27T04:22:07Z</time>
      </trkpt>
      <trkpt lat="45.8807" lon="6.12319">
        <ele>687</ele>
        <time>2011-05-27T04:22:31Z</time>
      </trkpt>
      <trkpt lat="45.8802" lon="6.12331">
        <ele>706</ele>
        <time>2011-05-27T04:24:16Z</time>
      </trkpt>
      <trkpt lat="45.8798" lon="6.12314">
        <ele>706</ele>
        <time>2011-05-27T04:24:41Z</time>
      </trkpt>
      <trkpt lat="45.8794" lon="6.12307">
        <ele>719</ele>
        <time>2011-05-27T04:25:54Z</time>
      </trkpt>
      <trkpt lat="45.8786" lon="6.12286">
        <ele>685</ele>
        <time>2011-05-27T04:27:38Z</time>
      </trkpt>
      <trkpt lat="45.8781" lon="6.1226">
        <ele>685</ele>
        <time>2011-05-27T04:28:08Z</time>
      </trkpt>
      <trkpt lat="45.8777" lon="6.12238">
        <ele>718</ele>
        <time>2011-05-27T04:30:14Z</time>
      </trkpt>
      <trkpt lat="45.8768" lon="6.122">
        <ele>725</ele>
        <time>2011-05-27T04:31:20Z</time>
      </trkpt>
      <trkpt lat="45.8763" lon="6.12163">
        <ele>725</ele>
        <time>2011-05-27T04:31:50Z</time>
      </trkpt>
      <trkpt lat="45.8758" lon="6.12106">
        <ele>717</ele>
        <time>2011-05-27T04:32:22Z</time>
      </trkpt>
      <trkpt lat="45.8746" lon="6.12032">
        <ele>777</ele>
        <time>2011-05-27T04:37:49Z</time>
      </trkpt>
      <trkpt lat="45.8735" lon="6.11961">
        <ele>816</ele>
        <time>2011-05-27T04:41:25Z</time>
      </trkpt>
      <trkpt lat="45.8725" lon="6.11921">
        <ele>815</ele>
        <time>2011-05-27T04:42:20Z</time>
      </trkpt>
      <trkpt lat="45.8717" lon="6.11879">
        <ele>846</ele>
        <time>2011-05-27T04:45:12Z</time>
      </trkpt>
      <trkpt lat="45.8714" lon="6.11874">
        <ele>807</ele>
        <time>2011-05-27T04:46:04Z</time>
      </trkpt>
      <trkpt lat="45.8712" lon="6.11934">
        <ele>857</ele>
        <time>2011-05-27T04:48:16Z</time>
      </trkpt>
      <trkpt lat="45.8703" lon="6.11932">
        <ele>867</ele>
        <time>2011-05-27T04:49:29Z</time>
      </trkpt>
      <trkpt lat="45.8699" lon="6.11901">
        <ele>867</ele>
        <time>2011-05-27T04:49:53Z</time>
      </trkpt>
      <trkpt lat="45.8693" lon="6.11867">
        <ele>868</ele>
        <time>2011-05-27T04:50:29Z</time>
      </trkpt>
      <trkpt lat="45.8688" lon="6.11851">
        <ele>868</ele>
        <time>2011-05-27T04:50:58Z</time>
      </trkpt>
      <trkpt lat="45.8682" lon="6.1184">
        <ele>867</ele>
        <time>2011-05-27T04:51:29Z</time>
      </trkpt>
      <trkpt lat="45.8677" lon="6.118">
        <ele>858</ele>
        <time>2011-05-27T04:52:01Z</time>
      </trkpt>
      <trkpt lat="45.8672" lon="6.11812">
        <ele>858</ele>
        <time>2011-05-27T04:52:34Z</time>
      </trkpt>
      <trkpt lat="45.8664" lon="6.11759">
        <ele>855</ele>
        <time>2011-05-27T04:53:17Z</time>
      </trkpt>
      <trkpt lat="45.8659" lon="6.11741">
        <ele>867</ele>
        <time>2011-05-27T04:54:26Z</time>
      </trkpt>
      <trkpt lat="45.8656" lon="6.1169">
        <ele>871</ele>
        <time>2011-05-27T04:54:59Z</time>
      </trkpt>
      <trkpt lat="45.8653" lon="6.11656">
        <ele>885</ele>
        <time>2011-05-27T04:56:17Z</time>
      </trkpt>
      <trkpt lat="45.865" lon="6.11623">
        <ele>876</ele>
        <time>2011-05-27T04:56:45Z</time>
      </trkpt>
      <trkpt lat="45.8646" lon="6.1161">
        <ele>876</ele>
        <time>2011-05-27T04:57:07Z</time>
      </trkpt>
      <trkpt lat="45.8642" lon="6.11635">
        <ele>891</ele>
        <time>2011-05-27T04:58:30Z</time>
      </trkpt>
      <trkpt lat="45.8636" lon="6.11639">
        <ele>895</ele>
        <time>2011-05-27T04:59:09Z</time>
      </trkpt>
      <trkpt lat="45.8626" lon="6.11676">
        <ele>891</ele>
        <time>2011-05-27T05:00:02Z</time>
      </trkpt>
      <trkpt lat="45.8622" lon="6.11665">
        <ele>891</ele>
        <time>2011-05-27T05:00:25Z</time>
      </trkpt>
      <trkpt lat="45.8616" lon="6.11716">
        <ele>873</ele>
        <time>2011-05-27T05:01:20Z</time>
      </trkpt>
      <trkpt lat="45.8608" lon="6.11723">
        <ele>876</ele>
        <time>2011-05-27T05:02:11Z</time>
      </trkpt>
      <trkpt lat="45.86" lon="6.11735">
        <ele>872</ele>
        <time>2011-05-27T05:02:50Z</time>
      </trkpt>
      <trkpt lat="45.8591" lon="6.11783">
        <ele>869</ele>
        <time>2011-05-27T05:03:37Z</time>
      </trkpt>
      <trkpt lat="45.8588" lon="6.11771">
        <ele>869</ele>
        <time>2011-05-27T05:03:58Z</time>
      </trkpt>
      <trkpt lat="45.8582" lon="6.11757">
        <ele>863</ele>
        <time>2011-05-27T05:04:25Z</time>
      </trkpt>
      <trkpt lat="45.8579" lon="6.11764">
        <ele>862</ele>
        <time>2011-05-27T05:04:44Z</time>
      </trkpt>
      <trkpt lat="45.8577" lon="6.1182">
        <ele>861</ele>
        <time>2011-05-27T05:05:06Z</time>
      </trkpt>
      <trkpt lat="45.8572" lon="6.11865">
        <ele>861</ele>
        <time>2011-05-27T05:05:37Z</time>
      </trkpt>
      <trkpt lat="45.8568" lon="6.11874">
        <ele>877</ele>
        <time>2011-05-27T05:07:06Z</time>
      </trkpt>
      <trkpt lat="45.8563" lon="6.11872">
        <ele>877</ele>
        <time>2011-05-27T05:07:30Z</time>
      </trkpt>
      <trkpt lat="45.8554" lon="6.11862">
        <ele>885</ele>
        <time>2011-05-27T05:08:37Z</time>
      </trkpt>
      <trkpt lat="45.8552" lon="6.118">
        <ele>895</ele>
        <time>2011-05-27T05:09:36Z</time>
      </trkpt>
      <trkpt lat="45.8542" lon="6.11803">
        <ele>905</ele>
        <time>2011-05-27T05:10:54Z</time>
      </trkpt>
      <trkpt lat="45.8539" lon="6.11784">
        <ele>901</ele>
        <time>2011-05-27T05:11:12Z</time>
      </trkpt>
      <trkpt lat="45.8534" lon="6.11737">
        <ele>906</ele>
        <time>2011-05-27T05:11:56Z</time>
      </trkpt>
      <trkpt lat="45.852" lon="6.11714">
        <ele>924</ele>
        <time>2011-05-27T05:13:57Z</time>
      </trkpt>
      <trkpt lat="45.8515" lon="6.11757">
        <ele>924</ele>
        <time>2011-05-27T05:14:32Z</time>
      </trkpt>
      <trkpt lat="45.8508" lon="6.11785">
        <ele>934</ele>
        <time>2011-05-27T05:15:37Z</time>
      </trkpt>
      <trkpt lat="45.8503" lon="6.11757">
        <ele>949</ele>
        <time>2011-05-27T05:17:02Z</time>
      </trkpt>
      <trkpt lat="45.8498" lon="6.11756">
        <ele>949</ele>
        <time>2011-05-27T05:17:26Z</time>
      </trkpt>
      <trkpt lat="45.8493" lon="6.11755">
        <ele>967</ele>
        <time>2011-05-27T05:19:06Z</time>
      </trkpt>
      <trkpt lat="45.8492" lon="6.1168">
        <ele>963</ele>
        <time>2011-05-27T05:19:33Z</time>
      </trkpt>
      <trkpt lat="45.8489" lon="6.11618">
        <ele>959</ele>
        <time>2011-05-27T05:20:00Z</time>
      </trkpt>
      <trkpt lat="45.8484" lon="6.11566">
        <ele>975</ele>
        <time>2011-05-27T05:21:30Z</time>
      </trkpt>
      <trkpt lat="45.8481" lon="6.1152">
        <ele>968</ele>
        <time>2011-05-27T05:21:55Z</time>
      </trkpt>
      <trkpt lat="45.8475" lon="6.11497">
        <ele>977</ele>
        <time>2011-05-27T05:22:53Z</time>
      </trkpt>
      <trkpt lat="45.8472" lon="6.11533">
        <ele>977</ele>
        <time>2011-05-27T05:23:16Z</time>
      </trkpt>
      <trkpt lat="45.8467" lon="6.11524">
        <ele>984</ele>
        <time>2011-05-27T05:24:00Z</time>
      </trkpt>
      <trkpt lat="45.8464" lon="6.11489">
        <ele>984</ele>
        <time>2011-05-27T05:24:23Z</time>
      </trkpt>
      <trkpt lat="45.8459" lon="6.11466">
        <ele>997</ele>
        <time>2011-05-27T05:25:36Z</time>
      </trkpt>
      <trkpt lat="45.8452" lon="6.11427">
        <ele>992</ele>
        <time>2011-05-27T05:26:13Z</time>
      </trkpt>
      <trkpt lat="45.8446" lon="6.11395">
        <ele>1007</ele>
        <time>2011-05-27T05:27:40Z</time>
      </trkpt>
      <trkpt lat="45.8438" lon="6.11335">
        <ele>999</ele>
        <time>2011-05-27T05:28:24Z</time>
      </trkpt>
      <trkpt lat="45.8434" lon="6.1129">
        <ele>1013</ele>
        <time>2011-05-27T05:29:43Z</time>
      </trkpt>
      <trkpt lat="45.843" lon="6.1127">
        <ele>1013</ele>
        <time>2011-05-27T05:30:09Z</time>
      </trkpt>
      <trkpt lat="45.8428" lon="6.11249">
        <ele>1022.56</ele>
        <time>2011-05-27T05:31:02Z</time>
      </trkpt>
      <trkpt lat="45.8424" lon="6.11219">
        <ele>1036</ele>
        <time>2011-05-27T05:32:18Z</time>
      </trkpt>
      <trkpt lat="45.8419" lon="6.11205">
        <ele>1043</ele>
        <time>2011-05-27T05:33:04Z</time>
      </trkpt>
      <trkpt lat="45.8415" lon="6.11186">
        <ele>1043</ele>
        <time>2011-05-27T05:33:29Z</time>
      </trkpt>
      <trkpt lat="45.8412" lon="6.11186">
        <ele>1064</ele>
        <time>2011-05-27T05:35:04Z</time>
      </trkpt>
      <trkpt lat="45.8409" lon="6.11161">
        <ele>1064</ele>
        <time>2011-05-27T05:35:23Z</time>
      </trkpt>
      <trkpt lat="45.8405" lon="6.11122">
        <ele>1046</ele>
        <time>2011-05-27T05:36:19Z</time>
      </trkpt>
      <trkpt lat="45.8397" lon="6.11078">
        <ele>1073</ele>
        <time>2011-05-27T05:38:51Z</time>
      </trkpt>
      <trkpt lat="45.8392" lon="6.11027">
        <ele>1082</ele>
        <time>2011-05-27T05:39:50Z</time>
      </trkpt>
      <trkpt lat="45.8382" lon="6.10956">
        <ele>1090</ele>
        <time>2011-05-27T05:41:08Z</time>
      </trkpt>
      <trkpt lat="45.8378" lon="6.10959">
        <ele>1128</ele>
        <time>2011-05-27T05:42:52Z</time>
      </trkpt>
      <trkpt lat="45.8375" lon="6.10944">
        <ele>1110</ele>
        <time>2011-05-27T05:43:46Z</time>
      </trkpt>
      <trkpt lat="45.8369" lon="6.10921">
        <ele>1133</ele>
        <time>2011-05-27T05:45:55Z</time>
      </trkpt>
      <trkpt lat="45.8364" lon="6.10899">
        <ele>1133</ele>
        <time>2011-05-27T05:46:23Z</time>
      </trkpt>
      <trkpt lat="45.8359" lon="6.10863">
        <ele>1139</ele>
        <time>2011-05-27T05:47:10Z</time>
      </trkpt>
      <trkpt lat="45.8356" lon="6.10898">
        <ele>1154</ele>
        <time>2011-05-27T05:48:34Z</time>
      </trkpt>
      <trkpt lat="45.8351" lon="6.10887">
        <ele>1172</ele>
        <time>2011-05-27T05:50:15Z</time>
      </trkpt>
      <trkpt lat="45.8346" lon="6.10871">
        <ele>1162</ele>
        <time>2011-05-27T05:50:48Z</time>
      </trkpt>
      <trkpt lat="45.8348" lon="6.10975">
        <ele>1184</ele>
        <time>2011-05-27T05:52:52Z</time>
      </trkpt>
      <trkpt lat="45.8347" lon="6.11023">
        <ele>1184</ele>
        <time>2011-05-27T05:53:12Z</time>
      </trkpt>
      <trkpt lat="45.8344" lon="6.1099">
        <ele>1215</ele>
        <time>2011-05-27T05:54:55Z</time>
      </trkpt>
      <trkpt lat="45.8337" lon="6.1102">
        <ele>1235</ele>
        <time>2011-05-27T05:56:48Z</time>
      </trkpt>
      <trkpt lat="45.8335" lon="6.11071">
        <ele>1234</ele>
        <time>2011-05-27T05:57:10Z</time>
      </trkpt>
      <trkpt lat="45.8334" lon="6.11019">
        <ele>1235</ele>
        <time>2011-05-27T05:57:33Z</time>
      </trkpt>
      <trkpt lat="45.833" lon="6.11059">
        <ele>1234</ele>
        <time>2011-05-27T05:58:02Z</time>
      </trkpt>
      <trkpt lat="45.8325" lon="6.11053">
        <ele>1259</ele>
        <time>2011-05-27T06:00:20Z</time>
      </trkpt>
      <trkpt lat="45.8321" lon="6.11092">
        <ele>1259</ele>
        <time>2011-05-27T06:00:45Z</time>
      </trkpt>
      <trkpt lat="45.8317" lon="6.11206">
        <ele>1281</ele>
        <time>2011-05-27T06:02:51Z</time>
      </trkpt>
      <trkpt lat="45.8314" lon="6.11175">
        <ele>1281</ele>
        <time>2011-05-27T06:03:13Z</time>
      </trkpt>
      <trkpt lat="45.8311" lon="6.11229">
        <ele>1299</ele>
        <time>2011-05-27T06:04:55Z</time>
      </trkpt>
      <trkpt lat="45.8306" lon="6.11296">
        <ele>1288</ele>
        <time>2011-05-27T06:05:33Z</time>
      </trkpt>
      <trkpt lat="45.8302" lon="6.11287">
        <ele>1308</ele>
        <time>2011-05-27T06:07:24Z</time>
      </trkpt>
      <trkpt lat="45.8299" lon="6.11246">
        <ele>1308</ele>
        <time>2011-05-27T06:07:53Z</time>
      </trkpt>
      <trkpt lat="45.8297" lon="6.1117">
        <ele>1317</ele>
        <time>2011-05-27T06:08:49Z</time>
      </trkpt>
      <trkpt lat="45.8294" lon="6.1114">
        <ele>1324</ele>
        <time>2011-05-27T06:09:30Z</time>
      </trkpt>
      <trkpt lat="45.829" lon="6.11111">
        <ele>1326</ele>
        <time>2011-05-27T06:10:06Z</time>
      </trkpt>
      <trkpt lat="45.8286" lon="6.11162">
        <ele>1337</ele>
        <time>2011-05-27T06:11:10Z</time>
      </trkpt>
      <trkpt lat="45.8283" lon="6.11119">
        <ele>1338</ele>
        <time>2011-05-27T06:11:39Z</time>
      </trkpt>
      <trkpt lat="45.828" lon="6.11059">
        <ele>1338</ele>
        <time>2011-05-27T06:12:09Z</time>
      </trkpt>
      <trkpt lat="45.8277" lon="6.11026">
        <ele>1348</ele>
        <time>2011-05-27T06:13:07Z</time>
      </trkpt>
      <trkpt lat="45.8273" lon="6.11105">
        <ele>1350</ele>
        <time>2011-05-27T06:13:49Z</time>
      </trkpt>
      <trkpt lat="45.827" lon="6.11151">
        <ele>1360</ele>
        <time>2011-05-27T06:14:47Z</time>
      </trkpt>
      <trkpt lat="45.8266" lon="6.11171">
        <ele>1360</ele>
        <time>2011-05-27T06:15:07Z</time>
      </trkpt>
      <trkpt lat="45.8262" lon="6.11225">
        <ele>1365</ele>
        <time>2011-05-27T06:15:50Z</time>
      </trkpt>
      <trkpt lat="45.8259" lon="6.11318">
        <ele>1363</ele>
        <time>2011-05-27T06:16:27Z</time>
      </trkpt>
      <trkpt lat="45.8255" lon="6.11355">
        <ele>1363</ele>
        <time>2011-05-27T06:16:55Z</time>
      </trkpt>
      <trkpt lat="45.825" lon="6.11365">
        <ele>1373</ele>
        <time>2011-05-27T06:17:53Z</time>
      </trkpt>
      <trkpt lat="45.8246" lon="6.11399">
        <ele>1369</ele>
        <time>2011-05-27T06:18:14Z</time>
      </trkpt>
      <trkpt lat="45.8239" lon="6.11396">
        <ele>1378</ele>
        <time>2011-05-27T06:19:16Z</time>
      </trkpt>
      <trkpt lat="45.8236" lon="6.11375">
        <ele>1377</ele>
        <time>2011-05-27T06:19:34Z</time>
      </trkpt>
      <trkpt lat="45.8233" lon="6.11362">
        <ele>1377</ele>
        <time>2011-05-27T06:19:54Z</time>
      </trkpt>
      <trkpt lat="45.8232" lon="6.113">
        <ele>1377</ele>
        <time>2011-05-27T06:20:21Z</time>
      </trkpt>
      <trkpt lat="45.8229" lon="6.11381">
        <ele>1374</ele>
        <time>2011-05-27T06:20:56Z</time>
      </trkpt>
      <trkpt lat="45.8227" lon="6.11428">
        <ele>1374</ele>
        <time>2011-05-27T06:21:20Z</time>
      </trkpt>
      <trkpt lat="45.8223" lon="6.11381">
        <ele>1374</ele>
        <time>2011-05-27T06:21:47Z</time>
      </trkpt>
      <trkpt lat="45.8223" lon="6.1133">
        <ele>1376</ele>
        <time>2011-05-27T06:22:11Z</time>
      </trkpt>
      <trkpt lat="45.822" lon="6.11375">
        <ele>1368</ele>
        <time>2011-05-27T06:22:37Z</time>
      </trkpt>
      <trkpt lat="45.8219" lon="6.11482">
        <ele>1364</ele>
        <time>2011-05-27T06:23:15Z</time>
      </trkpt>
      <trkpt lat="45.8219" lon="6.11572">
        <ele>1361</ele>
        <time>2011-05-27T06:23:47Z</time>
      </trkpt>
      <trkpt lat="45.8215" lon="6.11546">
        <ele>1361</ele>
        <time>2011-05-27T06:24:16Z</time>
      </trkpt>
      <trkpt lat="45.821" lon="6.11502">
        <ele>1363</ele>
        <time>2011-05-27T06:24:51Z</time>
      </trkpt>
      <trkpt lat="45.8206" lon="6.1148">
        <ele>1363</ele>
        <time>2011-05-27T06:25:16Z</time>
      </trkpt>
      <trkpt lat="45.8203" lon="6.11407">
        <ele>1365</ele>
        <time>2011-05-27T06:25:52Z</time>
      </trkpt>
      <trkpt lat="45.8199" lon="6.11431">
        <ele>1365</ele>
        <time>2011-05-27T06:26:19Z</time>
      </trkpt>
      <trkpt lat="45.8197" lon="6.11493">
        <ele>1366</ele>
        <time>2011-05-27T06:26:47Z</time>
      </trkpt>
      <trkpt lat="45.8194" lon="6.11479">
        <ele>1377</ele>
        <time>2011-05-27T06:27:49Z</time>
      </trkpt>
      <trkpt lat="45.8191" lon="6.11464">
        <ele>1377</ele>
        <time>2011-05-27T06:28:08Z</time>
      </trkpt>
      <trkpt lat="45.8187" lon="6.11431">
        <ele>1388</ele>
        <time>2011-05-27T06:29:11Z</time>
      </trkpt>
      <trkpt lat="45.8184" lon="6.11413">
        <ele>1388</ele>
        <time>2011-05-27T06:29:34Z</time>
      </trkpt>
      <trkpt lat="45.8183" lon="6.11337">
        <ele>1393</ele>
        <time>2011-05-27T06:30:15Z</time>
      </trkpt>
      <trkpt lat="45.8179" lon="6.11336">
        <ele>1393</ele>
        <time>2011-05-27T06:30:39Z</time>
      </trkpt>
      <trkpt lat="45.8174" lon="6.11288">
        <ele>1413</ele>
        <time>2011-05-27T06:32:32Z</time>
      </trkpt>
      <trkpt lat="45.8166" lon="6.11271">
        <ele>1423</ele>
        <time>2011-05-27T06:33:45Z</time>
      </trkpt>
      <trkpt lat="45.8161" lon="6.11184">
        <ele>1441</ele>
        <time>2011-05-27T06:35:29Z</time>
      </trkpt>
      <trkpt lat="45.8159" lon="6.11119">
        <ele>1445</ele>
        <time>2011-05-27T06:36:05Z</time>
      </trkpt>
      <trkpt lat="45.8157" lon="6.11057">
        <ele>1445</ele>
        <time>2011-05-27T06:36:34Z</time>
      </trkpt>
      <trkpt lat="45.8155" lon="6.11003">
        <ele>1450</ele>
        <time>2011-05-27T06:37:13Z</time>
      </trkpt>
      <trkpt lat="45.815" lon="6.10984">
        <ele>1458</ele>
        <time>2011-05-27T06:38:06Z</time>
      </trkpt>
      <trkpt lat="45.8145" lon="6.11026">
        <ele>1471</ele>
        <time>2011-05-27T06:39:20Z</time>
      </trkpt>
      <trkpt lat="45.8142" lon="6.11047">
        <ele>1465</ele>
        <time>2011-05-27T06:39:42Z</time>
      </trkpt>
      <trkpt lat="45.8139" lon="6.11095">
        <ele>1465</ele>
        <time>2011-05-27T06:40:08Z</time>
      </trkpt>
      <trkpt lat="45.813" lon="6.11155">
        <ele>1484</ele>
        <time>2011-05-27T06:42:01Z</time>
      </trkpt>
      <trkpt lat="45.8127" lon="6.11188">
        <ele>1501</ele>
        <time>2011-05-27T06:43:35Z</time>
      </trkpt>
      <trkpt lat="45.8117" lon="6.11235">
        <ele>1508</ele>
        <time>2011-05-27T06:44:45Z</time>
      </trkpt>
      <trkpt lat="45.8115" lon="6.11216">
        <ele>1510.15</ele>
        <time>2011-05-27T06:45:04Z</time>
      </trkpt>
      <trkpt lat="45.8111" lon="6.11133">
        <ele>1518</ele>
        <time>2011-05-27T06:46:05Z</time>
      </trkpt>
      <trkpt lat="45.8108" lon="6.1101">
        <ele>1523</ele>
        <time>2011-05-27T06:47:05Z</time>
      </trkpt>
      <trkpt lat="45.8106" lon="6.10979">
        <ele>1523</ele>
        <time>2011-05-27T06:47:26Z</time>
      </trkpt>
      <trkpt lat="45.8103" lon="6.10912">
        <ele>1529</ele>
        <time>2011-05-27T06:48:10Z</time>
      </trkpt>
      <trkpt lat="45.8099" lon="6.10852">
        <ele>1526</ele>
        <time>2011-05-27T06:48:40Z</time>
      </trkpt>
      <trkpt lat="45.8094" lon="6.108">
        <ele>1538</ele>
        <time>2011-05-27T06:49:52Z</time>
      </trkpt>
      <trkpt lat="45.8089" lon="6.10811">
        <ele>1538</ele>
        <time>2011-05-27T06:50:19Z</time>
      </trkpt>
      <trkpt lat="45.8084" lon="6.10892">
        <ele>1556</ele>
        <time>2011-05-27T06:52:03Z</time>
      </trkpt>
      <trkpt lat="45.8079" lon="6.10928">
        <ele>1556</ele>
        <time>2011-05-27T06:52:31Z</time>
      </trkpt>
      <trkpt lat="45.8073" lon="6.1094">
        <ele>1569</ele>
        <time>2011-05-27T06:53:48Z</time>
      </trkpt>
      <trkpt lat="45.8066" lon="6.10899">
        <ele>1571</ele>
        <time>2011-05-27T06:54:31Z</time>
      </trkpt>
      <trkpt lat="45.806" lon="6.10895">
        <ele>1579</ele>
        <time>2011-05-27T06:55:28Z</time>
      </trkpt>
      <trkpt lat="45.8052" lon="6.10941">
        <ele>1585</ele>
        <time>2011-05-27T06:56:26Z</time>
      </trkpt>
      <trkpt lat="45.8047" lon="6.10949">
        <ele>1585</ele>
        <time>2011-05-27T06:56:53Z</time>
      </trkpt>
      <trkpt lat="45.8042" lon="6.10974">
        <ele>1601</ele>
        <time>2011-05-27T06:58:24Z</time>
      </trkpt>
      <trkpt lat="45.8038" lon="6.10995">
        <ele>1601</ele>
        <time>2011-05-27T06:58:50Z</time>
      </trkpt>
      <trkpt lat="45.8031" lon="6.1095">
        <ele>1595</ele>
        <time>2011-05-27T06:59:29Z</time>
      </trkpt>
      <trkpt lat="45.8027" lon="6.10907">
        <ele>1604</ele>
        <time>2011-05-27T07:00:23Z</time>
      </trkpt>
      <trkpt lat="45.8024" lon="6.10883">
        <ele>1604</ele>
        <time>2011-05-27T07:00:44Z</time>
      </trkpt>
      <trkpt lat="45.8021" lon="6.10818">
        <ele>1604</ele>
        <time>2011-05-27T07:01:13Z</time>
      </trkpt>
      <trkpt lat="45.8021" lon="6.10838">
        <ele>1604</ele>
        <time>2011-05-27T07:01:35Z</time>
      </trkpt>
      <trkpt lat="45.802" lon="6.10896">
        <ele>1632</ele>
        <time>2011-05-27T07:03:24Z</time>
      </trkpt>
      <trkpt lat="45.8011" lon="6.10839">
        <ele>1638</ele>
        <time>2011-05-27T07:04:33Z</time>
      </trkpt>
      <trkpt lat="45.8006" lon="6.10828">
        <ele>1638</ele>
        <time>2011-05-27T07:04:59Z</time>
      </trkpt>
      <trkpt lat="45.7998" lon="6.10757">
        <ele>1637</ele>
        <time>2011-05-27T07:05:52Z</time>
      </trkpt>
      <trkpt lat="45.7993" lon="6.10745">
        <ele>1656</ele>
        <time>2011-05-27T07:07:38Z</time>
      </trkpt>
      <trkpt lat="45.7979" lon="6.10631">
        <ele>1673</ele>
        <time>2011-05-27T07:09:49Z</time>
      </trkpt>
      <trkpt lat="45.7972" lon="6.10473">
        <ele>1679</ele>
        <time>2011-05-27T07:11:11Z</time>
      </trkpt>
      <trkpt lat="45.7967" lon="6.10426">
        <ele>1686</ele>
        <time>2011-05-27T07:12:02Z</time>
      </trkpt>
      <trkpt lat="45.7966" lon="6.10367">
        <ele>1674</ele>
        <time>2011-05-27T07:12:39Z</time>
      </trkpt>
      <trkpt lat="45.7958" lon="6.103">
        <ele>1662</ele>
        <time>2011-05-27T07:13:30Z</time>
      </trkpt>
      <trkpt lat="45.7949" lon="6.10268">
        <ele>1656</ele>
        <time>2011-05-27T07:14:17Z</time>
      </trkpt>
      <trkpt lat="45.7945" lon="6.10242">
        <ele>1645</ele>
        <time>2011-05-27T07:14:51Z</time>
      </trkpt>
      <trkpt lat="45.7931" lon="6.1018">
        <ele>1644</ele>
        <time>2011-05-27T07:16:14Z</time>
      </trkpt>
      <trkpt lat="45.7926" lon="6.10146">
        <ele>1639</ele>
        <time>2011-05-27T07:16:41Z</time>
      </trkpt>
      <trkpt lat="45.792" lon="6.10118">
        <ele>1637</ele>
        <time>2011-05-27T07:17:18Z</time>
      </trkpt>
      <trkpt lat="45.7907" lon="6.09986">
        <ele>1635</ele>
        <time>2011-05-27T07:18:42Z</time>
      </trkpt>
      <trkpt lat="45.7897" lon="6.09919">
        <ele>1640</ele>
        <time>2011-05-27T07:19:50Z</time>
      </trkpt>
      <trkpt lat="45.7888" lon="6.099">
        <ele>1640</ele>
        <time>2011-05-27T07:20:43Z</time>
      </trkpt>
      <trkpt lat="45.788" lon="6.09809">
        <ele>1646</ele>
        <time>2011-05-27T07:21:51Z</time>
      </trkpt>
      <trkpt lat="45.7877" lon="6.09782">
        <ele>1650</ele>
        <time>2011-05-27T07:22:21Z</time>
      </trkpt>
      <trkpt lat="45.787" lon="6.09763">
        <ele>1642</ele>
        <time>2011-05-27T07:22:57Z</time>
      </trkpt>
      <trkpt lat="45.7865" lon="6.09712">
        <ele>1642</ele>
        <time>2011-05-27T07:23:32Z</time>
      </trkpt>
      <trkpt lat="45.7857" lon="6.09605">
        <ele>1635</ele>
        <time>2011-05-27T07:24:27Z</time>
      </trkpt>
      <trkpt lat="45.7847" lon="6.09559">
        <ele>1624</ele>
        <time>2011-05-27T07:25:21Z</time>
      </trkpt>
      <trkpt lat="45.7842" lon="6.09553">
        <ele>1619</ele>
        <time>2011-05-27T07:25:46Z</time>
      </trkpt>
      <trkpt lat="45.7839" lon="6.09535">
        <ele>1620</ele>
        <time>2011-05-27T07:26:08Z</time>
      </trkpt>
      <trkpt lat="45.7838" lon="6.09486">
        <ele>1620</ele>
        <time>2011-05-27T07:26:28Z</time>
      </trkpt>
      <trkpt lat="45.7838" lon="6.09383">
        <ele>1619</ele>
        <time>2011-05-27T07:27:07Z</time>
      </trkpt>
      <trkpt lat="45.7836" lon="6.0932">
        <ele>1613</ele>
        <time>2011-05-27T07:27:33Z</time>
      </trkpt>
      <trkpt lat="45.7835" lon="6.09305">
        <ele>1613.64</ele>
        <time>2011-05-27T07:27:45Z</time>
      </trkpt>
      <trkpt lat="45.7829" lon="6.09249">
        <ele>1616</ele>
        <time>2011-05-27T07:28:28Z</time>
      </trkpt>
      <trkpt lat="45.7828" lon="6.09202">
        <ele>1615</ele>
        <time>2011-05-27T07:28:47Z</time>
      </trkpt>
      <trkpt lat="45.7821" lon="6.09166">
        <ele>1615</ele>
        <time>2011-05-27T07:29:24Z</time>
      </trkpt>
      <trkpt lat="45.7818" lon="6.09139">
        <ele>1623</ele>
        <time>2011-05-27T07:30:14Z</time>
      </trkpt>
      <trkpt lat="45.7809" lon="6.09048">
        <ele>1615</ele>
        <time>2011-05-27T07:31:12Z</time>
      </trkpt>
      <trkpt lat="45.7795" lon="6.08954">
        <ele>1596</ele>
        <time>2011-05-27T07:32:33Z</time>
      </trkpt>
      <trkpt lat="45.7785" lon="6.08808">
        <ele>1583</ele>
        <time>2011-05-27T07:33:45Z</time>
      </trkpt>
      <trkpt lat="45.7782" lon="6.08771">
        <ele>1561</ele>
        <time>2011-05-27T07:34:54Z</time>
      </trkpt>
      <trkpt lat="45.7777" lon="6.08854">
        <ele>1567</ele>
        <time>2011-05-27T07:35:50Z</time>
      </trkpt>
      <trkpt lat="45.7776" lon="6.08906">
        <ele>1574</ele>
        <time>2011-05-27T07:36:32Z</time>
      </trkpt>
      <trkpt lat="45.7771" lon="6.08866">
        <ele>1567</ele>
        <time>2011-05-27T07:37:13Z</time>
      </trkpt>
      <trkpt lat="45.7769" lon="6.08855">
        <ele>1564.65</ele>
        <time>2011-05-27T07:37:24Z</time>
      </trkpt>
      <trkpt lat="45.776" lon="6.08803">
        <ele>1553</ele>
        <time>2011-05-27T07:38:17Z</time>
      </trkpt>
      <trkpt lat="45.7754" lon="6.08941">
        <ele>1560</ele>
        <time>2011-05-27T07:39:37Z</time>
      </trkpt>
      <trkpt lat="45.7751" lon="6.08996">
        <ele>1575</ele>
        <time>2011-05-27T07:41:02Z</time>
      </trkpt>
      <trkpt lat="45.7748" lon="6.08961">
        <ele>1575</ele>
        <time>2011-05-27T07:41:23Z</time>
      </trkpt>
      <trkpt lat="45.7746" lon="6.08862">
        <ele>1563</ele>
        <time>2011-05-27T07:42:07Z</time>
      </trkpt>
      <trkpt lat="45.774" lon="6.08772">
        <ele>1542</ele>
        <time>2011-05-27T07:43:13Z</time>
      </trkpt>
      <trkpt lat="45.7738" lon="6.08727">
        <ele>1542</ele>
        <time>2011-05-27T07:43:34Z</time>
      </trkpt>
      <trkpt lat="45.7728" lon="6.0866">
        <ele>1538</ele>
        <time>2011-05-27T07:44:30Z</time>
      </trkpt>
      <trkpt lat="45.7723" lon="6.08554">
        <ele>1518</ele>
        <time>2011-05-27T07:45:34Z</time>
      </trkpt>
      <trkpt lat="45.7714" lon="6.08598">
        <ele>1505</ele>
        <time>2011-05-27T07:46:24Z</time>
      </trkpt>
      <trkpt lat="45.7709" lon="6.08625">
        <ele>1508</ele>
        <time>2011-05-27T07:47:05Z</time>
      </trkpt>
      <trkpt lat="45.7704" lon="6.08608">
        <ele>1464</ele>
        <time>2011-05-27T07:48:22Z</time>
      </trkpt>
      <trkpt lat="45.7699" lon="6.08613">
        <ele>1464</ele>
        <time>2011-05-27T07:48:46Z</time>
      </trkpt>
      <trkpt lat="45.7695" lon="6.08664">
        <ele>1467</ele>
        <time>2011-05-27T07:49:22Z</time>
      </trkpt>
      <trkpt lat="45.7686" lon="6.08688">
        <ele>1447</ele>
        <time>2011-05-27T07:50:27Z</time>
      </trkpt>
      <trkpt lat="45.7675" lon="6.0866">
        <ele>1429</ele>
        <time>2011-05-27T07:51:33Z</time>
      </trkpt>
      <trkpt lat="45.7685" lon="6.08531">
        <ele>1383</ele>
        <time>2011-05-27T07:53:57Z</time>
      </trkpt>
      <trkpt lat="45.7687" lon="6.08477">
        <ele>1383</ele>
        <time>2011-05-27T07:54:28Z</time>
      </trkpt>
      <trkpt lat="45.769" lon="6.08403">
        <ele>1377</ele>
        <time>2011-05-27T07:54:57Z</time>
      </trkpt>
      <trkpt lat="45.7697" lon="6.08356">
        <ele>1358</ele>
        <time>2011-05-27T07:55:58Z</time>
      </trkpt>
      <trkpt lat="45.7695" lon="6.08325">
        <ele>1341</ele>
        <time>2011-05-27T07:56:51Z</time>
      </trkpt>
      <trkpt lat="45.7693" lon="6.08238">
        <ele>1310</ele>
        <time>2011-05-27T07:58:28Z</time>
      </trkpt>
      <trkpt lat="45.7688" lon="6.08177">
        <ele>1288</ele>
        <time>2011-05-27T07:59:37Z</time>
      </trkpt>
      <trkpt lat="45.7692" lon="6.08135">
        <ele>1288</ele>
        <time>2011-05-27T08:00:05Z</time>
      </trkpt>
      <trkpt lat="45.7693" lon="6.08066">
        <ele>1242</ele>
        <time>2011-05-27T08:01:23Z</time>
      </trkpt>
      <trkpt lat="45.7695" lon="6.07983">
        <ele>1206</ele>
        <time>2011-05-27T08:02:56Z</time>
      </trkpt>
      <trkpt lat="45.7694" lon="6.07928">
        <ele>1187</ele>
        <time>2011-05-27T08:03:54Z</time>
      </trkpt>
      <trkpt lat="45.7692" lon="6.0787">
        <ele>1184</ele>
        <time>2011-05-27T08:04:18Z</time>
      </trkpt>
      <trkpt lat="45.7685" lon="6.07906">
        <ele>1171</ele>
        <time>2011-05-27T08:05:05Z</time>
      </trkpt>
      <trkpt lat="45.7679" lon="6.07987">
        <ele>1131</ele>
        <time>2011-05-27T08:07:09Z</time>
      </trkpt>
      <trkpt lat="45.7674" lon="6.08001">
        <ele>1131</ele>
        <time>2011-05-27T08:07:43Z</time>
      </trkpt>
      <trkpt lat="45.7672" lon="6.08057">
        <ele>1135</ele>
        <time>2011-05-27T08:08:17Z</time>
      </trkpt>
      <trkpt lat="45.7667" lon="6.0807">
        <ele>1101</ele>
        <time>2011-05-27T08:09:43Z</time>
      </trkpt>
      <trkpt lat="45.7664" lon="6.08072">
        <ele>1101</ele>
        <time>2011-05-27T08:10:08Z</time>
      </trkpt>
      <trkpt lat="45.7657" lon="6.08006">
        <ele>1067</ele>
        <time>2011-05-27T08:11:55Z</time>
      </trkpt>
      <trkpt lat="45.765" lon="6.0791">
        <ele>1038</ele>
        <time>2011-05-27T08:13:25Z</time>
      </trkpt>
      <trkpt lat="45.7647" lon="6.07896">
        <ele>1038</ele>
        <time>2011-05-27T08:13:45Z</time>
      </trkpt>
      <trkpt lat="45.7643" lon="6.07869">
        <ele>1008</ele>
        <time>2011-05-27T08:14:54Z</time>
      </trkpt>
      <trkpt lat="45.7637" lon="6.07816">
        <ele>994</ele>
        <time>2011-05-27T08:15:41Z</time>
      </trkpt>
      <trkpt lat="45.7631" lon="6.07818">
        <ele>994</ele>
        <time>2011-05-27T08:16:12Z</time>
      </trkpt>
      <trkpt lat="45.7627" lon="6.07784">
        <ele>966</ele>
        <time>2011-05-27T08:17:27Z</time>
      </trkpt>
      <trkpt lat="45.7621" lon="6.07761">
        <ele>966</ele>
        <time>2011-05-27T08:18:02Z</time>
      </trkpt>
      <trkpt lat="45.7617" lon="6.07777">
        <ele>950</ele>
        <time>2011-05-27T08:18:52Z</time>
      </trkpt>
      <trkpt lat="45.7611" lon="6.0777">
        <ele>926</ele>
        <time>2011-05-27T08:20:08Z</time>
      </trkpt>
      <trkpt lat="45.7607" lon="6.07757">
        <ele>926</ele>
        <time>2011-05-27T08:20:33Z</time>
      </trkpt>
      <trkpt lat="45.7604" lon="6.07756">
        <ele>898</ele>
        <time>2011-05-27T08:21:29Z</time>
      </trkpt>
      <trkpt lat="45.76" lon="6.07729">
        <ele>898</ele>
        <time>2011-05-27T08:21:54Z</time>
      </trkpt>
      <trkpt lat="45.7592" lon="6.07688">
        <ele>859</ele>
        <time>2011-05-27T08:23:55Z</time>
      </trkpt>
      <trkpt lat="45.7587" lon="6.07709">
        <ele>845</ele>
        <time>2011-05-27T08:24:39Z</time>
      </trkpt>
      <trkpt lat="45.7584" lon="6.07723">
        <ele>845</ele>
        <time>2011-05-27T08:25:00Z</time>
      </trkpt>
      <trkpt lat="45.7578" lon="6.0777">
        <ele>819</ele>
        <time>2011-05-27T08:26:22Z</time>
      </trkpt>
      <trkpt lat="45.7567" lon="6.07873">
        <ele>803</ele>
        <time>2011-05-27T08:27:31Z</time>
      </trkpt>
      <trkpt lat="45.7566" lon="6.07925">
        <ele>805</ele>
        <time>2011-05-27T08:27:57Z</time>
      </trkpt>
      <trkpt lat="45.7557" lon="6.07989">
        <ele>775</ele>
        <time>2011-05-27T08:29:31Z</time>
      </trkpt>
      <trkpt lat="45.7552" lon="6.07988">
        <ele>743</ele>
        <time>2011-05-27T08:30:45Z</time>
      </trkpt>
      <trkpt lat="45.7549" lon="6.08022">
        <ele>743</ele>
        <time>2011-05-27T08:31:08Z</time>
      </trkpt>
      <trkpt lat="45.7542" lon="6.08095">
        <ele>713</ele>
        <time>2011-05-27T08:32:42Z</time>
      </trkpt>
      <trkpt lat="45.7538" lon="6.08124">
        <ele>713</ele>
        <time>2011-05-27T08:33:07Z</time>
      </trkpt>
      <trkpt lat="45.7534" lon="6.08197">
        <ele>683</ele>
        <time>2011-05-27T08:34:42Z</time>
      </trkpt>
      <trkpt lat="45.753" lon="6.08168">
        <ele>683</ele>
        <time>2011-05-27T08:35:05Z</time>
      </trkpt>
      <trkpt lat="45.7525" lon="6.08158">
        <ele>664</ele>
        <time>2011-05-27T08:36:05Z</time>
      </trkpt>
      <trkpt lat="45.752" lon="6.0816">
        <ele>646</ele>
        <time>2011-05-27T08:37:01Z</time>
      </trkpt>
      <trkpt lat="45.7519" lon="6.0811">
        <ele>643</ele>
        <time>2011-05-27T08:37:21Z</time>
      </trkpt>
      <trkpt lat="45.7517" lon="6.08088">
        <ele>643</ele>
        <time>2011-05-27T08:37:46Z</time>
      </trkpt>
      <trkpt lat="45.7515" lon="6.08184">
        <ele>646</ele>
        <time>2011-05-27T08:38:30Z</time>
      </trkpt>
      <trkpt lat="45.751" lon="6.08357">
        <ele>633</ele>
        <time>2011-05-27T08:39:39Z</time>
      </trkpt>
      <trkpt lat="45.7508" lon="6.08451">
        <ele>637</ele>
        <time>2011-05-27T08:40:26Z</time>
      </trkpt>
      <trkpt lat="45.7505" lon="6.08541">
        <ele>642</ele>
        <time>2011-05-27T08:41:16Z</time>
      </trkpt>
      <trkpt lat="45.7504" lon="6.08557">
        <ele>638.405</ele>
        <time>2011-05-27T08:41:28Z</time>
      </trkpt>
      <trkpt lat="45.75" lon="6.08696">
        <ele>632</ele>
        <time>2011-05-27T08:42:22Z</time>
      </trkpt>
      <trkpt lat="45.7497" lon="6.08837">
        <ele>640</ele>
        <time>2011-05-27T08:43:38Z</time>
      </trkpt>
      <trkpt lat="45.7496" lon="6.08914">
        <ele>645</ele>
        <time>2011-05-27T08:44:19Z</time>
      </trkpt>
      <trkpt lat="45.7492" lon="6.0902">
        <ele>633</ele>
        <time>2011-05-27T08:45:07Z</time>
      </trkpt>
      <trkpt lat="45.7489" lon="6.09119">
        <ele>638</ele>
        <time>2011-05-27T08:46:00Z</time>
      </trkpt>
      <trkpt lat="45.7485" lon="6.09186">
        <ele>623</ele>
        <time>2011-05-27T08:46:47Z</time>
      </trkpt>
      <trkpt lat="45.7484" lon="6.0927">
        <ele>628</ele>
        <time>2011-05-27T08:47:32Z</time>
      </trkpt>
      <trkpt lat="45.7475" lon="6.09368">
        <ele>611</ele>
        <time>2011-05-27T08:48:36Z</time>
      </trkpt>
      <trkpt lat="45.7473" lon="6.0942">
        <ele>620</ele>
        <time>2011-05-27T08:49:29Z</time>
      </trkpt>
      <trkpt lat="45.7471" lon="6.09537">
        <ele>611</ele>
        <time>2011-05-27T08:50:15Z</time>
      </trkpt>
      <trkpt lat="45.7465" lon="6.09604">
        <ele>630</ele>
        <time>2011-05-27T08:52:06Z</time>
      </trkpt>
      <trkpt lat="45.7462" lon="6.09645">
        <ele>629</ele>
        <time>2011-05-27T08:52:27Z</time>
      </trkpt>
      <trkpt lat="45.7457" lon="6.097">
        <ele>629</ele>
        <time>2011-05-27T08:53:03Z</time>
      </trkpt>
      <trkpt lat="45.7454" lon="6.09727">
        <ele>639</ele>
        <time>2011-05-27T08:54:01Z</time>
      </trkpt>
      <trkpt lat="45.745" lon="6.09738">
        <ele>639</ele>
        <time>2011-05-27T08:54:24Z</time>
      </trkpt>
      <trkpt lat="45.7448" lon="6.09813">
        <ele>668</ele>
        <time>2011-05-27T08:57:02Z</time>
      </trkpt>
      <trkpt lat="45.7445" lon="6.09848">
        <ele>638</ele>
        <time>2011-05-27T08:57:58Z</time>
      </trkpt>
      <trkpt lat="45.7439" lon="6.09902">
        <ele>661</ele>
        <time>2011-05-27T09:00:11Z</time>
      </trkpt>
      <trkpt lat="45.7435" lon="6.09944">
        <ele>641</ele>
        <time>2011-05-27T09:01:14Z</time>
      </trkpt>
      <trkpt lat="45.7423" lon="6.09937">
        <ele>624</ele>
        <time>2011-05-27T09:02:20Z</time>
      </trkpt>
      <trkpt lat="45.7419" lon="6.09948">
        <ele>614</ele>
        <time>2011-05-27T09:02:53Z</time>
      </trkpt>
      <trkpt lat="45.7413" lon="6.09935">
        <ele>614</ele>
        <time>2011-05-27T09:03:23Z</time>
      </trkpt>
      <trkpt lat="45.7408" lon="6.09959">
        <ele>638</ele>
        <time>2011-05-27T09:05:39Z</time>
      </trkpt>
      <trkpt lat="45.7397" lon="6.09969">
        <ele>626</ele>
        <time>2011-05-27T09:06:38Z</time>
      </trkpt>
      <trkpt lat="45.7387" lon="6.09962">
        <ele>620</ele>
        <time>2011-05-27T09:07:28Z</time>
      </trkpt>
      <trkpt lat="45.7379" lon="6.10058">
        <ele>653</ele>
        <time>2011-05-27T09:10:39Z</time>
      </trkpt>
      <trkpt lat="45.7376" lon="6.10081">
        <ele>650</ele>
        <time>2011-05-27T09:10:57Z</time>
      </trkpt>
      <trkpt lat="45.7362" lon="6.10155">
        <ele>678</ele>
        <time>2011-05-27T09:13:49Z</time>
      </trkpt>
      <trkpt lat="45.7355" lon="6.1023">
        <ele>706</ele>
        <time>2011-05-27T09:16:31Z</time>
      </trkpt>
      <trkpt lat="45.7355" lon="6.10299">
        <ele>734</ele>
        <time>2011-05-27T09:19:06Z</time>
      </trkpt>
      <trkpt lat="45.7351" lon="6.10322">
        <ele>735</ele>
        <time>2011-05-27T09:19:31Z</time>
      </trkpt>
      <trkpt lat="45.7356" lon="6.10384">
        <ele>754</ele>
        <time>2011-05-27T09:21:22Z</time>
      </trkpt>
      <trkpt lat="45.7358" lon="6.10445">
        <ele>754</ele>
        <time>2011-05-27T09:21:50Z</time>
      </trkpt>
      <trkpt lat="45.7355" lon="6.10507">
        <ele>764</ele>
        <time>2011-05-27T09:22:52Z</time>
      </trkpt>
      <trkpt lat="45.7345" lon="6.10419">
        <ele>765</ele>
        <time>2011-05-27T09:24:03Z</time>
      </trkpt>
      <trkpt lat="45.7343" lon="6.10358">
        <ele>761</ele>
        <time>2011-05-27T09:24:28Z</time>
      </trkpt>
      <trkpt lat="45.7339" lon="6.1034">
        <ele>761</ele>
        <time>2011-05-27T09:24:52Z</time>
      </trkpt>
      <trkpt lat="45.7335" lon="6.10321">
        <ele>761</ele>
        <time>2011-05-27T09:25:14Z</time>
      </trkpt>
      <trkpt lat="45.7331" lon="6.10243">
        <ele>763</ele>
        <time>2011-05-27T09:25:56Z</time>
      </trkpt>
      <trkpt lat="45.7324" lon="6.10206">
        <ele>755</ele>
        <time>2011-05-27T09:26:35Z</time>
      </trkpt>
      <trkpt lat="45.7317" lon="6.10285">
        <ele>743</ele>
        <time>2011-05-27T09:27:26Z</time>
      </trkpt>
      <trkpt lat="45.7316" lon="6.10346">
        <ele>734</ele>
        <time>2011-05-27T09:27:56Z</time>
      </trkpt>
      <trkpt lat="45.7309" lon="6.104">
        <ele>710</ele>
        <time>2011-05-27T09:29:12Z</time>
      </trkpt>
      <trkpt lat="45.7307" lon="6.10444">
        <ele>710</ele>
        <time>2011-05-27T09:29:36Z</time>
      </trkpt>
      <trkpt lat="45.7303" lon="6.10462">
        <ele>684</ele>
        <time>2011-05-27T09:30:44Z</time>
      </trkpt>
      <trkpt lat="45.7299" lon="6.10502">
        <ele>684</ele>
        <time>2011-05-27T09:31:11Z</time>
      </trkpt>
      <trkpt lat="45.7294" lon="6.10506">
        <ele>675</ele>
        <time>2011-05-27T09:31:42Z</time>
      </trkpt>
      <trkpt lat="45.7286" lon="6.10491">
        <ele>665</ele>
        <time>2011-05-27T09:32:25Z</time>
      </trkpt>
      <trkpt lat="45.7282" lon="6.10497">
        <ele>665</ele>
        <time>2011-05-27T09:32:45Z</time>
      </trkpt>
      <trkpt lat="45.7262" lon="6.10581">
        <ele>642</ele>
        <time>2011-05-27T09:34:36Z</time>
      </trkpt>
      <trkpt lat="45.7278" lon="6.10713">
        <ele>644</ele>
        <time>2011-05-27T09:36:23Z</time>
      </trkpt>
      <trkpt lat="45.7274" lon="6.10731">
        <ele>644</ele>
        <time>2011-05-27T09:36:50Z</time>
      </trkpt>
      <trkpt lat="45.7272" lon="6.10773">
        <ele>644</ele>
        <time>2011-05-27T09:37:15Z</time>
      </trkpt>
      <trkpt lat="45.7273" lon="6.10784">
        <ele>644</ele>
        <time>2011-05-27T09:37:42Z</time>
      </trkpt>
      <trkpt lat="45.7271" lon="6.10867">
        <ele>645</ele>
        <time>2011-05-27T09:38:21Z</time>
      </trkpt>
      <trkpt lat="45.7273" lon="6.10929">
        <ele>650</ele>
        <time>2011-05-27T09:38:59Z</time>
      </trkpt>
      <trkpt lat="45.7275" lon="6.1097">
        <ele>656</ele>
        <time>2011-05-27T09:39:37Z</time>
      </trkpt>
      <trkpt lat="45.7276" lon="6.11045">
        <ele>666</ele>
        <time>2011-05-27T09:40:40Z</time>
      </trkpt>
      <trkpt lat="45.7274" lon="6.11113">
        <ele>666</ele>
        <time>2011-05-27T09:41:09Z</time>
      </trkpt>
      <trkpt lat="45.7272" lon="6.11164">
        <ele>677</ele>
        <time>2011-05-27T09:42:13Z</time>
      </trkpt>
      <trkpt lat="45.7271" lon="6.11269">
        <ele>683</ele>
        <time>2011-05-27T09:43:09Z</time>
      </trkpt>
      <trkpt lat="45.7269" lon="6.11348">
        <ele>693</ele>
        <time>2011-05-27T09:44:12Z</time>
      </trkpt>
      <trkpt lat="45.7262" lon="6.11441">
        <ele>697</ele>
        <time>2011-05-27T09:45:10Z</time>
      </trkpt>
      <trkpt lat="45.726" lon="6.11505">
        <ele>710</ele>
        <time>2011-05-27T09:46:26Z</time>
      </trkpt>
      <trkpt lat="45.726" lon="6.11554">
        <ele>719</ele>
        <time>2011-05-27T09:47:19Z</time>
      </trkpt>
      <trkpt lat="45.7259" lon="6.11572">
        <ele>720.258</ele>
        <time>2011-05-27T09:47:30Z</time>
      </trkpt>
      <trkpt lat="45.7253" lon="6.11729">
        <ele>731</ele>
        <time>2011-05-27T09:49:05Z</time>
      </trkpt>
      <trkpt lat="45.725" lon="6.11765">
        <ele>731</ele>
        <time>2011-05-27T09:49:26Z</time>
      </trkpt>
      <trkpt lat="45.726" lon="6.1177">
        <ele>731</ele>
        <time>2011-05-27T09:50:24Z</time>
      </trkpt>
      <trkpt lat="45.7269" lon="6.11809">
        <ele>732</ele>
        <time>2011-05-27T09:51:17Z</time>
      </trkpt>
      <trkpt lat="45.7274" lon="6.11804">
        <ele>727</ele>
        <time>2011-05-27T09:51:43Z</time>
      </trkpt>
      <trkpt lat="45.7277" lon="6.11853">
        <ele>727</ele>
        <time>2011-05-27T09:52:09Z</time>
      </trkpt>
      <trkpt lat="45.7275" lon="6.11922">
        <ele>734</ele>
        <time>2011-05-27T09:52:57Z</time>
      </trkpt>
      <trkpt lat="45.7277" lon="6.12064">
        <ele>748</ele>
        <time>2011-05-27T09:54:32Z</time>
      </trkpt>
      <trkpt lat="45.7284" lon="6.12241">
        <ele>751</ele>
        <time>2011-05-27T09:56:04Z</time>
      </trkpt>
      <trkpt lat="45.7292" lon="6.12393">
        <ele>754</ele>
        <time>2011-05-27T09:57:22Z</time>
      </trkpt>
      <trkpt lat="45.7292" lon="6.12443">
        <ele>754</ele>
        <time>2011-05-27T09:57:42Z</time>
      </trkpt>
      <trkpt lat="45.7295" lon="6.12546">
        <ele>767</ele>
        <time>2011-05-27T09:59:06Z</time>
      </trkpt>
      <trkpt lat="45.7299" lon="6.12585">
        <ele>744</ele>
        <time>2011-05-27T10:00:12Z</time>
      </trkpt>
      <trkpt lat="45.7303" lon="6.12649">
        <ele>757</ele>
        <time>2011-05-27T10:01:30Z</time>
      </trkpt>
      <trkpt lat="45.7305" lon="6.12722">
        <ele>746</ele>
        <time>2011-05-27T10:02:07Z</time>
      </trkpt>
      <trkpt lat="45.7307" lon="6.12765">
        <ele>746</ele>
        <time>2011-05-27T10:02:27Z</time>
      </trkpt>
      <trkpt lat="45.7308" lon="6.12828">
        <ele>766</ele>
        <time>2011-05-27T10:04:22Z</time>
      </trkpt>
      <trkpt lat="45.731" lon="6.12898">
        <ele>783</ele>
        <time>2011-05-27T10:06:01Z</time>
      </trkpt>
      <trkpt lat="45.7308" lon="6.12988">
        <ele>792</ele>
        <time>2011-05-27T10:07:02Z</time>
      </trkpt>
      <trkpt lat="45.7311" lon="6.13045">
        <ele>795</ele>
        <time>2011-05-27T10:07:34Z</time>
      </trkpt>
      <trkpt lat="45.7316" lon="6.1317">
        <ele>776</ele>
        <time>2011-05-27T10:08:41Z</time>
      </trkpt>
      <trkpt lat="45.7317" lon="6.13219">
        <ele>784</ele>
        <time>2011-05-27T10:09:28Z</time>
      </trkpt>
      <trkpt lat="45.7319" lon="6.13324">
        <ele>785</ele>
        <time>2011-05-27T10:10:14Z</time>
      </trkpt>
      <trkpt lat="45.7322" lon="6.13351">
        <ele>765</ele>
        <time>2011-05-27T10:11:18Z</time>
      </trkpt>
      <trkpt lat="45.7323" lon="6.13348">
        <ele>765</ele>
        <time>2011-05-27T10:11:53Z</time>
      </trkpt>
      <trkpt lat="45.7327" lon="6.13416">
        <ele>772</ele>
        <time>2011-05-27T10:12:50Z</time>
      </trkpt>
      <trkpt lat="45.7329" lon="6.13519">
        <ele>767</ele>
        <time>2011-05-27T10:13:31Z</time>
      </trkpt>
      <trkpt lat="45.7331" lon="6.1357">
        <ele>750</ele>
        <time>2011-05-27T10:14:25Z</time>
      </trkpt>
      <trkpt lat="45.7331" lon="6.13623">
        <ele>750</ele>
        <time>2011-05-27T10:14:47Z</time>
      </trkpt>
      <trkpt lat="45.7331" lon="6.13687">
        <ele>753</ele>
        <time>2011-05-27T10:15:19Z</time>
      </trkpt>
      <trkpt lat="45.7334" lon="6.13742">
        <ele>760</ele>
        <time>2011-05-27T10:16:07Z</time>
      </trkpt>
      <trkpt lat="45.7336" lon="6.13831">
        <ele>764</ele>
        <time>2011-05-27T10:16:53Z</time>
      </trkpt>
      <trkpt lat="45.7335" lon="6.13885">
        <ele>771</ele>
        <time>2011-05-27T10:17:38Z</time>
      </trkpt>
      <trkpt lat="45.734" lon="6.13853">
        <ele>765</ele>
        <time>2011-05-27T10:18:05Z</time>
      </trkpt>
      <trkpt lat="45.7342" lon="6.13801">
        <ele>765</ele>
        <time>2011-05-27T10:18:28Z</time>
      </trkpt>
      <trkpt lat="45.7343" lon="6.137">
        <ele>754</ele>
        <time>2011-05-27T10:19:10Z</time>
      </trkpt>
      <trkpt lat="45.735" lon="6.13732">
        <ele>781</ele>
        <time>2011-05-27T10:21:48Z</time>
      </trkpt>
      <trkpt lat="45.7352" lon="6.13827">
        <ele>785</ele>
        <time>2011-05-27T10:22:46Z</time>
      </trkpt>
      <trkpt lat="45.7358" lon="6.13951">
        <ele>807</ele>
        <time>2011-05-27T10:25:00Z</time>
      </trkpt>
      <trkpt lat="45.736" lon="6.13962">
        <ele>813</ele>
        <time>2011-05-27T10:25:43Z</time>
      </trkpt>
      <trkpt lat="45.7363" lon="6.14049">
        <ele>825</ele>
        <time>2011-05-27T10:26:58Z</time>
      </trkpt>
      <trkpt lat="45.7367" lon="6.14105">
        <ele>825</ele>
        <time>2011-05-27T10:27:31Z</time>
      </trkpt>
      <trkpt lat="45.7372" lon="6.14102">
        <ele>832</ele>
        <time>2011-05-27T10:28:21Z</time>
      </trkpt>
      <trkpt lat="45.7378" lon="6.14149">
        <ele>842</ele>
        <time>2011-05-27T10:29:29Z</time>
      </trkpt>
      <trkpt lat="45.7379" lon="6.14202">
        <ele>847</ele>
        <time>2011-05-27T10:30:05Z</time>
      </trkpt>
      <trkpt lat="45.7378" lon="6.14257">
        <ele>848</ele>
        <time>2011-05-27T10:30:30Z</time>
      </trkpt>
      <trkpt lat="45.7371" lon="6.14359">
        <ele>859</ele>
        <time>2011-05-27T10:31:55Z</time>
      </trkpt>
      <trkpt lat="45.737" lon="6.14459">
        <ele>861</ele>
        <time>2011-05-27T10:32:39Z</time>
      </trkpt>
      <trkpt lat="45.7368" lon="6.14542">
        <ele>867</ele>
        <time>2011-05-27T10:33:28Z</time>
      </trkpt>
      <trkpt lat="45.7368" lon="6.14682">
        <ele>870</ele>
        <time>2011-05-27T10:34:29Z</time>
      </trkpt>
      <trkpt lat="45.7366" lon="6.1479">
        <ele>879</ele>
        <time>2011-05-27T10:35:37Z</time>
      </trkpt>
      <trkpt lat="45.7364" lon="6.14871">
        <ele>896</ele>
        <time>2011-05-27T10:37:17Z</time>
      </trkpt>
      <trkpt lat="45.7357" lon="6.14969">
        <ele>897</ele>
        <time>2011-05-27T10:38:13Z</time>
      </trkpt>
      <trkpt lat="45.7355" lon="6.15025">
        <ele>897</ele>
        <time>2011-05-27T10:38:39Z</time>
      </trkpt>
      <trkpt lat="45.7353" lon="6.15058">
        <ele>892</ele>
        <time>2011-05-27T10:38:59Z</time>
      </trkpt>
      <trkpt lat="45.7348" lon="6.15078">
        <ele>892</ele>
        <time>2011-05-27T10:39:28Z</time>
      </trkpt>
      <trkpt lat="45.734" lon="6.15274">
        <ele>906</ele>
        <time>2011-05-27T10:41:30Z</time>
      </trkpt>
      <trkpt lat="45.7335" lon="6.15355">
        <ele>895</ele>
        <time>2011-05-27T10:42:12Z</time>
      </trkpt>
      <trkpt lat="45.7334" lon="6.15401">
        <ele>916</ele>
        <time>2011-05-27T10:43:51Z</time>
      </trkpt>
      <trkpt lat="45.733" lon="6.15456">
        <ele>916</ele>
        <time>2011-05-27T10:44:21Z</time>
      </trkpt>
      <trkpt lat="45.733" lon="6.15509">
        <ele>928</ele>
        <time>2011-05-27T10:45:31Z</time>
      </trkpt>
      <trkpt lat="45.7327" lon="6.15579">
        <ele>914</ele>
        <time>2011-05-27T10:46:16Z</time>
      </trkpt>
      <trkpt lat="45.7322" lon="6.15632">
        <ele>928</ele>
        <time>2011-05-27T10:47:42Z</time>
      </trkpt>
      <trkpt lat="45.7324" lon="6.15791">
        <ele>946</ele>
        <time>2011-05-27T10:49:39Z</time>
      </trkpt>
      <trkpt lat="45.7322" lon="6.15856">
        <ele>958</ele>
        <time>2011-05-27T10:50:51Z</time>
      </trkpt>
      <trkpt lat="45.7319" lon="6.15937">
        <ele>978</ele>
        <time>2011-05-27T10:52:49Z</time>
      </trkpt>
      <trkpt lat="45.7319" lon="6.15991">
        <ele>986</ele>
        <time>2011-05-27T10:53:37Z</time>
      </trkpt>
      <trkpt lat="45.7318" lon="6.16051">
        <ele>986.475</ele>
        <time>2011-05-27T10:54:02Z</time>
      </trkpt>
      <trkpt lat="45.7317" lon="6.16118">
        <ele>987</ele>
        <time>2011-05-27T10:54:30Z</time>
      </trkpt>
      <trkpt lat="45.7323" lon="6.16233">
        <ele>994</ele>
        <time>2011-05-27T10:55:41Z</time>
      </trkpt>
      <trkpt lat="45.7326" lon="6.16287">
        <ele>994</ele>
        <time>2011-05-27T10:56:10Z</time>
      </trkpt>
      <trkpt lat="45.7336" lon="6.16275">
        <ele>1004</ele>
        <time>2011-05-27T10:57:30Z</time>
      </trkpt>
      <trkpt lat="45.734" lon="6.16249">
        <ele>1016</ele>
        <time>2011-05-27T10:58:42Z</time>
      </trkpt>
      <trkpt lat="45.7348" lon="6.16204">
        <ele>1023</ele>
        <time>2011-05-27T10:59:44Z</time>
      </trkpt>
      <trkpt lat="45.7351" lon="6.16174">
        <ele>1023</ele>
        <time>2011-05-27T11:00:12Z</time>
      </trkpt>
      <trkpt lat="45.7355" lon="6.16133">
        <ele>1026</ele>
        <time>2011-05-27T11:00:47Z</time>
      </trkpt>
      <trkpt lat="45.736" lon="6.16113">
        <ele>1016</ele>
        <time>2011-05-27T11:01:21Z</time>
      </trkpt>
      <trkpt lat="45.7365" lon="6.16007">
        <ele>1013</ele>
        <time>2011-05-27T11:02:06Z</time>
      </trkpt>
      <trkpt lat="45.7382" lon="6.16007">
        <ele>1032</ele>
        <time>2011-05-27T11:04:33Z</time>
      </trkpt>
      <trkpt lat="45.7385" lon="6.15953">
        <ele>1028</ele>
        <time>2011-05-27T11:04:57Z</time>
      </trkpt>
      <trkpt lat="45.7391" lon="6.15937">
        <ele>1040</ele>
        <time>2011-05-27T11:06:12Z</time>
      </trkpt>
      <trkpt lat="45.7387" lon="6.1602">
        <ele>1032</ele>
        <time>2011-05-27T11:06:50Z</time>
      </trkpt>
      <trkpt lat="45.7387" lon="6.16083">
        <ele>1044</ele>
        <time>2011-05-27T11:08:01Z</time>
      </trkpt>
      <trkpt lat="45.7382" lon="6.16193">
        <ele>1067</ele>
        <time>2011-05-27T11:10:17Z</time>
      </trkpt>
      <trkpt lat="45.7383" lon="6.16339">
        <ele>1085</ele>
        <time>2011-05-27T11:12:11Z</time>
      </trkpt>
      <trkpt lat="45.7384" lon="6.16412">
        <ele>1092</ele>
        <time>2011-05-27T11:13:00Z</time>
      </trkpt>
      <trkpt lat="45.7389" lon="6.16492">
        <ele>1128</ele>
        <time>2011-05-27T11:16:24Z</time>
      </trkpt>
      <trkpt lat="45.7393" lon="6.16601">
        <ele>1113</ele>
        <time>2011-05-27T11:17:17Z</time>
      </trkpt>
      <trkpt lat="45.7395" lon="6.16641">
        <ele>1117</ele>
        <time>2011-05-27T11:17:49Z</time>
      </trkpt>
      <trkpt lat="45.7397" lon="6.16716">
        <ele>1139</ele>
        <time>2011-05-27T11:19:57Z</time>
      </trkpt>
      <trkpt lat="45.7402" lon="6.16773">
        <ele>1139</ele>
        <time>2011-05-27T11:20:34Z</time>
      </trkpt>
      <trkpt lat="45.7402" lon="6.16832">
        <ele>1150</ele>
        <time>2011-05-27T11:21:39Z</time>
      </trkpt>
      <trkpt lat="45.7406" lon="6.16869">
        <ele>1171</ele>
        <time>2011-05-27T11:23:38Z</time>
      </trkpt>
      <trkpt lat="45.7413" lon="6.16897">
        <ele>1202</ele>
        <time>2011-05-27T11:26:39Z</time>
      </trkpt>
      <trkpt lat="45.7415" lon="6.16951">
        <ele>1202</ele>
        <time>2011-05-27T11:27:06Z</time>
      </trkpt>
      <trkpt lat="45.7415" lon="6.17027">
        <ele>1215</ele>
        <time>2011-05-27T11:28:24Z</time>
      </trkpt>
      <trkpt lat="45.7413" lon="6.17075">
        <ele>1235</ele>
        <time>2011-05-27T11:30:17Z</time>
      </trkpt>
      <trkpt lat="45.7411" lon="6.17117">
        <ele>1219</ele>
        <time>2011-05-27T11:31:09Z</time>
      </trkpt>
      <trkpt lat="45.7417" lon="6.17147">
        <ele>1250</ele>
        <time>2011-05-27T11:34:07Z</time>
      </trkpt>
      <trkpt lat="45.742" lon="6.17164">
        <ele>1250</ele>
        <time>2011-05-27T11:34:30Z</time>
      </trkpt>
      <trkpt lat="45.7425" lon="6.17179">
        <ele>1256</ele>
        <time>2011-05-27T11:35:12Z</time>
      </trkpt>
      <trkpt lat="45.7429" lon="6.1716">
        <ele>1256</ele>
        <time>2011-05-27T11:35:38Z</time>
      </trkpt>
      <trkpt lat="45.7435" lon="6.1721">
        <ele>1279</ele>
        <time>2011-05-27T11:37:54Z</time>
      </trkpt>
      <trkpt lat="45.7439" lon="6.17209">
        <ele>1296</ele>
        <time>2011-05-27T11:39:33Z</time>
      </trkpt>
      <trkpt lat="45.7443" lon="6.1722">
        <ele>1296</ele>
        <time>2011-05-27T11:40:00Z</time>
      </trkpt>
      <trkpt lat="45.7447" lon="6.1723">
        <ele>1313</ele>
        <time>2011-05-27T11:41:40Z</time>
      </trkpt>
      <trkpt lat="45.7452" lon="6.17279">
        <ele>1313</ele>
        <time>2011-05-27T11:42:11Z</time>
      </trkpt>
      <trkpt lat="45.7456" lon="6.17294">
        <ele>1336</ele>
        <time>2011-05-27T11:44:20Z</time>
      </trkpt>
      <trkpt lat="45.7461" lon="6.17343">
        <ele>1336</ele>
        <time>2011-05-27T11:45:01Z</time>
      </trkpt>
      <trkpt lat="45.7466" lon="6.1736">
        <ele>1349</ele>
        <time>2011-05-27T11:46:18Z</time>
      </trkpt>
      <trkpt lat="45.7469" lon="6.17392">
        <ele>1370</ele>
        <time>2011-05-27T11:48:12Z</time>
      </trkpt>
      <trkpt lat="45.7474" lon="6.17401">
        <ele>1376</ele>
        <time>2011-05-27T11:48:56Z</time>
      </trkpt>
      <trkpt lat="45.7477" lon="6.17421">
        <ele>1376</ele>
        <time>2011-05-27T11:49:17Z</time>
      </trkpt>
      <trkpt lat="45.7482" lon="6.17427">
        <ele>1376</ele>
        <time>2011-05-27T11:49:45Z</time>
      </trkpt>
      <trkpt lat="45.7489" lon="6.17399">
        <ele>1383</ele>
        <time>2011-05-27T11:50:44Z</time>
      </trkpt>
      <trkpt lat="45.7495" lon="6.17397">
        <ele>1383</ele>
        <time>2011-05-27T11:51:22Z</time>
      </trkpt>
      <trkpt lat="45.7501" lon="6.17362">
        <ele>1371</ele>
        <time>2011-05-27T11:52:04Z</time>
      </trkpt>
      <trkpt lat="45.7514" lon="6.17338">
        <ele>1381</ele>
        <time>2011-05-27T11:53:38Z</time>
      </trkpt>
      <trkpt lat="45.7524" lon="6.17394">
        <ele>1377</ele>
        <time>2011-05-27T11:54:38Z</time>
      </trkpt>
      <trkpt lat="45.7528" lon="6.17406">
        <ele>1377</ele>
        <time>2011-05-27T11:55:02Z</time>
      </trkpt>
      <trkpt lat="45.7533" lon="6.17477">
        <ele>1365</ele>
        <time>2011-05-27T11:55:46Z</time>
      </trkpt>
      <trkpt lat="45.7537" lon="6.17509">
        <ele>1365</ele>
        <time>2011-05-27T11:56:11Z</time>
      </trkpt>
      <trkpt lat="45.7548" lon="6.17538">
        <ele>1325</ele>
        <time>2011-05-27T11:58:21Z</time>
      </trkpt>
      <trkpt lat="45.7558" lon="6.17608">
        <ele>1320</ele>
        <time>2011-05-27T11:59:23Z</time>
      </trkpt>
      <trkpt lat="45.7562" lon="6.1761">
        <ele>1320</ele>
        <time>2011-05-27T11:59:45Z</time>
      </trkpt>
      <trkpt lat="45.7564" lon="6.17555">
        <ele>1298</ele>
        <time>2011-05-27T12:00:56Z</time>
      </trkpt>
      <trkpt lat="45.7566" lon="6.17512">
        <ele>1287</ele>
        <time>2011-05-27T12:01:32Z</time>
      </trkpt>
      <trkpt lat="45.7576" lon="6.17524">
        <ele>1267</ele>
        <time>2011-05-27T12:02:40Z</time>
      </trkpt>
      <trkpt lat="45.758" lon="6.17475">
        <ele>1243</ele>
        <time>2011-05-27T12:03:58Z</time>
      </trkpt>
      <trkpt lat="45.758" lon="6.17441">
        <ele>1252</ele>
        <time>2011-05-27T12:04:55Z</time>
      </trkpt>
      <trkpt lat="45.7588" lon="6.17476">
        <ele>1221</ele>
        <time>2011-05-27T12:06:36Z</time>
      </trkpt>
      <trkpt lat="45.7609" lon="6.17468">
        <ele>1192</ele>
        <time>2011-05-27T12:08:41Z</time>
      </trkpt>
      <trkpt lat="45.7619" lon="6.17514">
        <ele>1189</ele>
        <time>2011-05-27T12:09:36Z</time>
      </trkpt>
      <trkpt lat="45.7629" lon="6.17581">
        <ele>1162</ele>
        <time>2011-05-27T12:11:03Z</time>
      </trkpt>
      <trkpt lat="45.7629" lon="6.17641">
        <ele>1154.14</ele>
        <time>2011-05-27T12:11:31Z</time>
      </trkpt>
      <trkpt lat="45.7632" lon="6.17694">
        <ele>1141</ele>
        <time>2011-05-27T12:12:13Z</time>
      </trkpt>
      <trkpt lat="45.7636" lon="6.17699">
        <ele>1141</ele>
        <time>2011-05-27T12:12:36Z</time>
      </trkpt>
      <trkpt lat="45.7645" lon="6.17681">
        <ele>1138</ele>
        <time>2011-05-27T12:13:25Z</time>
      </trkpt>
      <trkpt lat="45.7643" lon="6.17785">
        <ele>1128</ele>
        <time>2011-05-27T12:14:07Z</time>
      </trkpt>
      <trkpt lat="45.7652" lon="6.17769">
        <ele>1120</ele>
        <time>2011-05-27T12:14:57Z</time>
      </trkpt>
      <trkpt lat="45.7655" lon="6.17795">
        <ele>1108</ele>
        <time>2011-05-27T12:15:36Z</time>
      </trkpt>
      <trkpt lat="45.7671" lon="6.17873">
        <ele>1098</ele>
        <time>2011-05-27T12:17:05Z</time>
      </trkpt>
      <trkpt lat="45.7682" lon="6.17899">
        <ele>1094</ele>
        <time>2011-05-27T12:18:05Z</time>
      </trkpt>
      <trkpt lat="45.7687" lon="6.17857">
        <ele>1104</ele>
        <time>2011-05-27T12:19:10Z</time>
      </trkpt>
      <trkpt lat="45.7695" lon="6.17909">
        <ele>1103</ele>
        <time>2011-05-27T12:19:54Z</time>
      </trkpt>
      <trkpt lat="45.7697" lon="6.17953">
        <ele>1131</ele>
        <time>2011-05-27T12:21:55Z</time>
      </trkpt>
      <trkpt lat="45.7724" lon="6.18033">
        <ele>1135</ele>
        <time>2011-05-27T12:24:41Z</time>
      </trkpt>
      <trkpt lat="45.7739" lon="6.18142">
        <ele>1111</ele>
        <time>2011-05-27T12:26:17Z</time>
      </trkpt>
      <trkpt lat="45.774" lon="6.18218">
        <ele>1114</ele>
        <time>2011-05-27T12:26:54Z</time>
      </trkpt>
      <trkpt lat="45.7743" lon="6.18274">
        <ele>1114</ele>
        <time>2011-05-27T12:27:22Z</time>
      </trkpt>
      <trkpt lat="45.7746" lon="6.18345">
        <ele>1084</ele>
        <time>2011-05-27T12:28:59Z</time>
      </trkpt>
      <trkpt lat="45.775" lon="6.18415">
        <ele>1093</ele>
        <time>2011-05-27T12:30:01Z</time>
      </trkpt>
      <trkpt lat="45.775" lon="6.18479">
        <ele>1096</ele>
        <time>2011-05-27T12:30:33Z</time>
      </trkpt>
      <trkpt lat="45.7754" lon="6.18551">
        <ele>1080</ele>
        <time>2011-05-27T12:31:25Z</time>
      </trkpt>
      <trkpt lat="45.7758" lon="6.18662">
        <ele>1085</ele>
        <time>2011-05-27T12:32:28Z</time>
      </trkpt>
      <trkpt lat="45.7757" lon="6.18715">
        <ele>1076</ele>
        <time>2011-05-27T12:32:59Z</time>
      </trkpt>
      <trkpt lat="45.7753" lon="6.18723">
        <ele>1072</ele>
        <time>2011-05-27T12:33:21Z</time>
      </trkpt>
      <trkpt lat="45.7757" lon="6.18752">
        <ele>1076</ele>
        <time>2011-05-27T12:33:55Z</time>
      </trkpt>
      <trkpt lat="45.7764" lon="6.18738">
        <ele>1067</ele>
        <time>2011-05-27T12:34:36Z</time>
      </trkpt>
      <trkpt lat="45.7762" lon="6.18769">
        <ele>1076</ele>
        <time>2011-05-27T12:35:32Z</time>
      </trkpt>
      <trkpt lat="45.7756" lon="6.18795">
        <ele>1054</ele>
        <time>2011-05-27T12:36:43Z</time>
      </trkpt>
      <trkpt lat="45.7754" lon="6.18826">
        <ele>1054</ele>
        <time>2011-05-27T12:37:04Z</time>
      </trkpt>
      <trkpt lat="45.775" lon="6.1881">
        <ele>1050</ele>
        <time>2011-05-27T12:37:26Z</time>
      </trkpt>
      <trkpt lat="45.7731" lon="6.18894">
        <ele>1040</ele>
        <time>2011-05-27T12:39:14Z</time>
      </trkpt>
      <trkpt lat="45.7727" lon="6.18949">
        <ele>1052</ele>
        <time>2011-05-27T12:40:28Z</time>
      </trkpt>
      <trkpt lat="45.7716" lon="6.18978">
        <ele>1028</ele>
        <time>2011-05-27T12:41:49Z</time>
      </trkpt>
      <trkpt lat="45.7711" lon="6.18974">
        <ele>1025</ele>
        <time>2011-05-27T12:42:12Z</time>
      </trkpt>
      <trkpt lat="45.7704" lon="6.18892">
        <ele>1019</ele>
        <time>2011-05-27T12:43:02Z</time>
      </trkpt>
      <trkpt lat="45.7691" lon="6.18638">
        <ele>1018</ele>
        <time>2011-05-27T12:45:10Z</time>
      </trkpt>
      <trkpt lat="45.7689" lon="6.18529">
        <ele>1033</ele>
        <time>2011-05-27T12:46:44Z</time>
      </trkpt>
      <trkpt lat="45.768" lon="6.18829">
        <ele>976</ele>
        <time>2011-05-27T12:49:51Z</time>
      </trkpt>
      <trkpt lat="45.7687" lon="6.18953">
        <ele>947</ele>
        <time>2011-05-27T12:51:25Z</time>
      </trkpt>
      <trkpt lat="45.7691" lon="6.19027">
        <ele>949</ele>
        <time>2011-05-27T12:52:04Z</time>
      </trkpt>
      <trkpt lat="45.7693" lon="6.19189">
        <ele>904</ele>
        <time>2011-05-27T12:54:32Z</time>
      </trkpt>
      <trkpt lat="45.7697" lon="6.19263">
        <ele>909</ele>
        <time>2011-05-27T12:55:21Z</time>
      </trkpt>
      <trkpt lat="45.771" lon="6.19306">
        <ele>876</ele>
        <time>2011-05-27T12:57:09Z</time>
      </trkpt>
      <trkpt lat="45.7703" lon="6.19331">
        <ele>864</ele>
        <time>2011-05-27T12:57:52Z</time>
      </trkpt>
      <trkpt lat="45.7693" lon="6.19311">
        <ele>831</ele>
        <time>2011-05-27T12:59:40Z</time>
      </trkpt>
      <trkpt lat="45.7684" lon="6.19257">
        <ele>830</ele>
        <time>2011-05-27T13:00:36Z</time>
      </trkpt>
      <trkpt lat="45.7685" lon="6.19313">
        <ele>792</ele>
        <time>2011-05-27T13:01:42Z</time>
      </trkpt>
      <trkpt lat="45.7695" lon="6.19419">
        <ele>785</ele>
        <time>2011-05-27T13:02:45Z</time>
      </trkpt>
      <trkpt lat="45.7708" lon="6.19491">
        <ele>782</ele>
        <time>2011-05-27T13:04:02Z</time>
      </trkpt>
      <trkpt lat="45.7689" lon="6.19469">
        <ele>743</ele>
        <time>2011-05-27T13:06:15Z</time>
      </trkpt>
      <trkpt lat="45.7699" lon="6.19539">
        <ele>740.019</ele>
        <time>2011-05-27T13:07:15Z</time>
      </trkpt>
      <trkpt lat="45.7709" lon="6.1961">
        <ele>737</ele>
        <time>2011-05-27T13:08:15Z</time>
      </trkpt>
      <trkpt lat="45.7731" lon="6.19713">
        <ele>664</ele>
        <time>2011-05-27T13:12:13Z</time>
      </trkpt>
      <trkpt lat="45.772" lon="6.19746">
        <ele>671</ele>
        <time>2011-05-27T13:13:35Z</time>
      </trkpt>
      <trkpt lat="45.7739" lon="6.19762">
        <ele>660</ele>
        <time>2011-05-27T13:15:19Z</time>
      </trkpt>
      <trkpt lat="45.7763" lon="6.19804">
        <ele>598</ele>
        <time>2011-05-27T13:18:41Z</time>
      </trkpt>
      <trkpt lat="45.7766" lon="6.19847">
        <ele>598</ele>
        <time>2011-05-27T13:19:06Z</time>
      </trkpt>
      <trkpt lat="45.7777" lon="6.19847">
        <ele>590</ele>
        <time>2011-05-27T13:20:02Z</time>
      </trkpt>
      <trkpt lat="45.7793" lon="6.19888">
        <ele>548</ele>
        <time>2011-05-27T13:22:20Z</time>
      </trkpt>
      <trkpt lat="45.7804" lon="6.19997">
        <ele>529</ele>
        <time>2011-05-27T13:23:40Z</time>
      </trkpt>
      <trkpt lat="45.782" lon="6.20126">
        <ele>511</ele>
        <time>2011-05-27T13:25:16Z</time>
      </trkpt>
      <trkpt lat="45.7822" lon="6.20184">
        <ele>511</ele>
        <time>2011-05-27T13:25:43Z</time>
      </trkpt>
      <trkpt lat="45.7821" lon="6.20276">
        <ele>504</ele>
        <time>2011-05-27T13:26:19Z</time>
      </trkpt>
      <trkpt lat="45.7817" lon="6.20286">
        <ele>506</ele>
        <time>2011-05-27T13:26:46Z</time>
      </trkpt>
      <trkpt lat="45.7821" lon="6.20397">
        <ele>490</ele>
        <time>2011-05-27T13:27:44Z</time>
      </trkpt>
      <trkpt lat="45.7823" lon="6.20471">
        <ele>486</ele>
        <time>2011-05-27T13:28:13Z</time>
      </trkpt>
      <trkpt lat="45.7826" lon="6.20601">
        <ele>479</ele>
        <time>2011-05-27T13:29:03Z</time>
      </trkpt>
      <trkpt lat="45.7818" lon="6.20632">
        <ele>474</ele>
        <time>2011-05-27T13:29:45Z</time>
      </trkpt>
      <trkpt lat="45.7815" lon="6.20719">
        <ele>472</ele>
        <time>2011-05-27T13:30:23Z</time>
      </trkpt>
      <trkpt lat="45.7787" lon="6.2091">
        <ele>477</ele>
        <time>2011-05-27T13:33:29Z</time>
      </trkpt>
      <trkpt lat="45.7774" lon="6.21319">
        <ele>476</ele>
        <time>2011-05-27T13:36:30Z</time>
      </trkpt>
      <trkpt lat="45.7798" lon="6.21633">
        <ele>469</ele>
        <time>2011-05-27T13:39:30Z</time>
      </trkpt>
      <trkpt lat="45.7806" lon="6.2179">
        <ele>467</ele>
        <time>2011-05-27T13:40:46Z</time>
      </trkpt>
      <trkpt lat="45.7806" lon="6.21792">
        <ele>467.036</ele>
        <time>2011-05-27T13:40:47Z</time>
      </trkpt>
      <trkpt lat="45.7811" lon="6.21925">
        <ele>469</ele>
        <time>2011-05-27T13:41:50Z</time>
      </trkpt>
      <trkpt lat="45.7819" lon="6.22042">
        <ele>465</ele>
        <time>2011-05-27T13:42:55Z</time>
      </trkpt>
      <trkpt lat="45.7822" lon="6.2211">
        <ele>464</ele>
        <time>2011-05-27T13:43:26Z</time>
      </trkpt>
      <trkpt lat="45.7826" lon="6.22301">
        <ele>466</ele>
        <time>2011-05-27T13:44:50Z</time>
      </trkpt>
      <trkpt lat="45.782" lon="6.22286">
        <ele>467</ele>
        <time>2011-05-27T13:45:24Z</time>
      </trkpt>
      <trkpt lat="45.7826" lon="6.2231">
        <ele>466</ele>
        <time>2011-05-27T13:45:57Z</time>
      </trkpt>
      <trkpt lat="45.7828" lon="6.22409">
        <ele>469</ele>
        <time>2011-05-27T13:46:45Z</time>
      </trkpt>
      <trkpt lat="45.7836" lon="6.22444">
        <ele>467</ele>
        <time>2011-05-27T13:47:30Z</time>
      </trkpt>
      <trkpt lat="45.7833" lon="6.22493">
        <ele>467</ele>
        <time>2011-05-27T13:47:55Z</time>
      </trkpt>
      <trkpt lat="45.7828" lon="6.22518">
        <ele>469</ele>
        <time>2011-05-27T13:48:28Z</time>
      </trkpt>
      <trkpt lat="45.7816" lon="6.22708">
        <ele>465</ele>
        <time>2011-05-27T13:50:10Z</time>
      </trkpt>
      <trkpt lat="45.781" lon="6.22784">
        <ele>466</ele>
        <time>2011-05-27T13:51:00Z</time>
      </trkpt>
      <trkpt lat="45.7812" lon="6.22863">
        <ele>466</ele>
        <time>2011-05-27T13:51:41Z</time>
      </trkpt>
      <trkpt lat="45.783" lon="6.23071">
        <ele>461.829</ele>
        <time>2011-05-27T13:53:54Z</time>
      </trkpt>
      <trkpt lat="45.7839" lon="6.23162">
        <ele>460</ele>
        <time>2011-05-27T13:54:52Z</time>
      </trkpt>
      <trkpt lat="45.7847" lon="6.23201">
        <ele>458</ele>
        <time>2011-05-27T13:55:43Z</time>
      </trkpt>
      <trkpt lat="45.7853" lon="6.23215">
        <ele>458</ele>
        <time>2011-05-27T13:56:14Z</time>
      </trkpt>
      <trkpt lat="45.7863" lon="6.23226">
        <ele>456</ele>
        <time>2011-05-27T13:57:13Z</time>
      </trkpt>
      <trkpt lat="45.7869" lon="6.23244">
        <ele>456</ele>
        <time>2011-05-27T13:57:51Z</time>
      </trkpt>
      <trkpt lat="45.7871" lon="6.23316">
        <ele>464</ele>
        <time>2011-05-27T13:58:47Z</time>
      </trkpt>
      <trkpt lat="45.7876" lon="6.23404">
        <ele>469</ele>
        <time>2011-05-27T13:59:42Z</time>
      </trkpt>
      <trkpt lat="45.7879" lon="6.23443">
        <ele>481</ele>
        <time>2011-05-27T14:00:55Z</time>
      </trkpt>
      <trkpt lat="45.7883" lon="6.23448">
        <ele>481</ele>
        <time>2011-05-27T14:01:17Z</time>
      </trkpt>
      <trkpt lat="45.7887" lon="6.23455">
        <ele>481</ele>
        <time>2011-05-27T14:01:40Z</time>
      </trkpt>
      <trkpt lat="45.7895" lon="6.23499">
        <ele>496</ele>
        <time>2011-05-27T14:03:18Z</time>
      </trkpt>
      <trkpt lat="45.7905" lon="6.23561">
        <ele>516</ele>
        <time>2011-05-27T14:05:29Z</time>
      </trkpt>
      <trkpt lat="45.7913" lon="6.2361">
        <ele>529</ele>
        <time>2011-05-27T14:06:58Z</time>
      </trkpt>
      <trkpt lat="45.7921" lon="6.23612">
        <ele>558</ele>
        <time>2011-05-27T14:09:52Z</time>
      </trkpt>
      <trkpt lat="45.7926" lon="6.23578">
        <ele>558</ele>
        <time>2011-05-27T14:10:22Z</time>
      </trkpt>
      <trkpt lat="45.7932" lon="6.23598">
        <ele>580</ele>
        <time>2011-05-27T14:12:34Z</time>
      </trkpt>
      <trkpt lat="45.7939" lon="6.23643">
        <ele>616</ele>
        <time>2011-05-27T14:16:07Z</time>
      </trkpt>
      <trkpt lat="45.7939" lon="6.23701">
        <ele>616</ele>
        <time>2011-05-27T14:16:32Z</time>
      </trkpt>
      <trkpt lat="45.7936" lon="6.23775">
        <ele>629</ele>
        <time>2011-05-27T14:17:53Z</time>
      </trkpt>
      <trkpt lat="45.7929" lon="6.2379">
        <ele>625</ele>
        <time>2011-05-27T14:18:33Z</time>
      </trkpt>
      <trkpt lat="45.7922" lon="6.23813">
        <ele>658</ele>
        <time>2011-05-27T14:21:47Z</time>
      </trkpt>
      <trkpt lat="45.7917" lon="6.23855">
        <ele>633</ele>
        <time>2011-05-27T14:23:10Z</time>
      </trkpt>
      <trkpt lat="45.7914" lon="6.23891">
        <ele>658</ele>
        <time>2011-05-27T14:24:51Z</time>
      </trkpt>
      <trkpt lat="45.7912" lon="6.23966">
        <ele>640</ele>
        <time>2011-05-27T14:25:50Z</time>
      </trkpt>
      <trkpt lat="45.7916" lon="6.2393">
        <ele>658</ele>
        <time>2011-05-27T14:27:39Z</time>
      </trkpt>
      <trkpt lat="45.7922" lon="6.23917">
        <ele>688</ele>
        <time>2011-05-27T14:30:33Z</time>
      </trkpt>
      <trkpt lat="45.7934" lon="6.23961">
        <ele>724</ele>
        <time>2011-05-27T14:34:11Z</time>
      </trkpt>
      <trkpt lat="45.7938" lon="6.23959">
        <ele>725</ele>
        <time>2011-05-27T14:34:36Z</time>
      </trkpt>
      <trkpt lat="45.7948" lon="6.23972">
        <ele>734</ele>
        <time>2011-05-27T14:35:58Z</time>
      </trkpt>
      <trkpt lat="45.7963" lon="6.23947">
        <ele>731</ele>
        <time>2011-05-27T14:37:19Z</time>
      </trkpt>
      <trkpt lat="45.7972" lon="6.23956">
        <ele>735</ele>
        <time>2011-05-27T14:38:23Z</time>
      </trkpt>
      <trkpt lat="45.7977" lon="6.23986">
        <ele>764</ele>
        <time>2011-05-27T14:40:48Z</time>
      </trkpt>
      <trkpt lat="45.7982" lon="6.24002">
        <ele>761</ele>
        <time>2011-05-27T14:41:16Z</time>
      </trkpt>
      <trkpt lat="45.799" lon="6.24054">
        <ele>805</ele>
        <time>2011-05-27T14:45:32Z</time>
      </trkpt>
      <trkpt lat="45.7996" lon="6.24075">
        <ele>805</ele>
        <time>2011-05-27T14:46:05Z</time>
      </trkpt>
      <trkpt lat="45.8001" lon="6.24062">
        <ele>818</ele>
        <time>2011-05-27T14:47:25Z</time>
      </trkpt>
      <trkpt lat="45.8011" lon="6.24069">
        <ele>843</ele>
        <time>2011-05-27T14:49:59Z</time>
      </trkpt>
      <trkpt lat="45.801" lon="6.24113">
        <ele>843</ele>
        <time>2011-05-27T14:50:24Z</time>
      </trkpt>
      <trkpt lat="45.8006" lon="6.24153">
        <ele>879</ele>
        <time>2011-05-27T14:52:49Z</time>
      </trkpt>
      <trkpt lat="45.8002" lon="6.24212">
        <ele>900</ele>
        <time>2011-05-27T14:54:56Z</time>
      </trkpt>
      <trkpt lat="45.7998" lon="6.24234">
        <ele>900</ele>
        <time>2011-05-27T14:55:23Z</time>
      </trkpt>
      <trkpt lat="45.799" lon="6.24265">
        <ele>897</ele>
        <time>2011-05-27T14:56:11Z</time>
      </trkpt>
      <trkpt lat="45.7981" lon="6.24315">
        <ele>935</ele>
        <time>2011-05-27T14:59:58Z</time>
      </trkpt>
      <trkpt lat="45.7977" lon="6.24355">
        <ele>927</ele>
        <time>2011-05-27T15:00:29Z</time>
      </trkpt>
      <trkpt lat="45.7967" lon="6.24429">
        <ele>954</ele>
        <time>2011-05-27T15:03:16Z</time>
      </trkpt>
      <trkpt lat="45.7974" lon="6.24419">
        <ele>964</ele>
        <time>2011-05-27T15:04:29Z</time>
      </trkpt>
      <trkpt lat="45.7985" lon="6.24392">
        <ele>974</ele>
        <time>2011-05-27T15:05:56Z</time>
      </trkpt>
      <trkpt lat="45.799" lon="6.24369">
        <ele>942</ele>
        <time>2011-05-27T15:07:31Z</time>
      </trkpt>
      <trkpt lat="45.7998" lon="6.24373">
        <ele>944</ele>
        <time>2011-05-27T15:08:18Z</time>
      </trkpt>
      <trkpt lat="45.8001" lon="6.24352">
        <ele>944</ele>
        <time>2011-05-27T15:08:39Z</time>
      </trkpt>
      <trkpt lat="45.8005" lon="6.24338">
        <ele>959</ele>
        <time>2011-05-27T15:10:10Z</time>
      </trkpt>
      <trkpt lat="45.8012" lon="6.24341">
        <ele>959</ele>
        <time>2011-05-27T15:10:49Z</time>
      </trkpt>
      <trkpt lat="45.8016" lon="6.24335">
        <ele>960</ele>
        <time>2011-05-27T15:11:12Z</time>
      </trkpt>
      <trkpt lat="45.8021" lon="6.24339">
        <ele>960</ele>
        <time>2011-05-27T15:11:42Z</time>
      </trkpt>
      <trkpt lat="45.8027" lon="6.24343">
        <ele>967</ele>
        <time>2011-05-27T15:12:39Z</time>
      </trkpt>
      <trkpt lat="45.8033" lon="6.24303">
        <ele>995</ele>
        <time>2011-05-27T15:15:28Z</time>
      </trkpt>
      <trkpt lat="45.8038" lon="6.24249">
        <ele>1017</ele>
        <time>2011-05-27T15:17:42Z</time>
      </trkpt>
      <trkpt lat="45.8042" lon="6.24218">
        <ele>1017</ele>
        <time>2011-05-27T15:18:06Z</time>
      </trkpt>
      <trkpt lat="45.8045" lon="6.24197">
        <ele>981</ele>
        <time>2011-05-27T15:19:16Z</time>
      </trkpt>
      <trkpt lat="45.8048" lon="6.24148">
        <ele>1038</ele>
        <time>2011-05-27T15:21:32Z</time>
      </trkpt>
      <trkpt lat="45.8055" lon="6.24089">
        <ele>1015</ele>
        <time>2011-05-27T15:22:48Z</time>
      </trkpt>
      <trkpt lat="45.8058" lon="6.24116">
        <ele>1015</ele>
        <time>2011-05-27T15:23:12Z</time>
      </trkpt>
      <trkpt lat="45.8062" lon="6.2414">
        <ele>1058</ele>
        <time>2011-05-27T15:25:15Z</time>
      </trkpt>
      <trkpt lat="45.8066" lon="6.24196">
        <ele>1058</ele>
        <time>2011-05-27T15:25:48Z</time>
      </trkpt>
      <trkpt lat="45.807" lon="6.24218">
        <ele>1092</ele>
        <time>2011-05-27T15:27:47Z</time>
      </trkpt>
      <trkpt lat="45.8075" lon="6.2423">
        <ele>1086</ele>
        <time>2011-05-27T15:28:16Z</time>
      </trkpt>
      <trkpt lat="45.808" lon="6.24274">
        <ele>1079</ele>
        <time>2011-05-27T15:28:51Z</time>
      </trkpt>
      <trkpt lat="45.8083" lon="6.24319">
        <ele>1099.05</ele>
        <time>2011-05-27T15:30:51Z</time>
      </trkpt>
      <trkpt lat="45.8085" lon="6.24468">
        <ele>1151</ele>
        <time>2011-05-27T15:36:00Z</time>
      </trkpt>
      <trkpt lat="45.809" lon="6.24498">
        <ele>1157</ele>
        <time>2011-05-27T15:36:48Z</time>
      </trkpt>
      <trkpt lat="45.8093" lon="6.24524">
        <ele>1157</ele>
        <time>2011-05-27T15:37:12Z</time>
      </trkpt>
      <trkpt lat="45.8096" lon="6.24578">
        <ele>1158</ele>
        <time>2011-05-27T15:37:40Z</time>
      </trkpt>
      <trkpt lat="45.8097" lon="6.24636">
        <ele>1174</ele>
        <time>2011-05-27T15:39:17Z</time>
      </trkpt>
      <trkpt lat="45.8097" lon="6.247">
        <ele>1174</ele>
        <time>2011-05-27T15:39:44Z</time>
      </trkpt>
      <trkpt lat="45.8103" lon="6.24662">
        <ele>1174</ele>
        <time>2011-05-27T15:40:27Z</time>
      </trkpt>
      <trkpt lat="45.8108" lon="6.24569">
        <ele>1191</ele>
        <time>2011-05-27T15:42:16Z</time>
      </trkpt>
      <trkpt lat="45.8108" lon="6.24509">
        <ele>1189</ele>
        <time>2011-05-27T15:42:39Z</time>
      </trkpt>
      <trkpt lat="45.8111" lon="6.24471">
        <ele>1189</ele>
        <time>2011-05-27T15:43:02Z</time>
      </trkpt>
      <trkpt lat="45.8115" lon="6.24469">
        <ele>1207</ele>
        <time>2011-05-27T15:44:50Z</time>
      </trkpt>
      <trkpt lat="45.8116" lon="6.24516">
        <ele>1207</ele>
        <time>2011-05-27T15:45:12Z</time>
      </trkpt>
      <trkpt lat="45.812" lon="6.24528">
        <ele>1207</ele>
        <time>2011-05-27T15:45:37Z</time>
      </trkpt>
      <trkpt lat="45.8125" lon="6.2452">
        <ele>1222</ele>
        <time>2011-05-27T15:47:09Z</time>
      </trkpt>
      <trkpt lat="45.8128" lon="6.24598">
        <ele>1241</ele>
        <time>2011-05-27T15:49:05Z</time>
      </trkpt>
      <trkpt lat="45.813" lon="6.24647">
        <ele>1266</ele>
        <time>2011-05-27T15:51:12Z</time>
      </trkpt>
      <trkpt lat="45.8131" lon="6.24704">
        <ele>1266</ele>
        <time>2011-05-27T15:51:36Z</time>
      </trkpt>
      <trkpt lat="45.8127" lon="6.24745">
        <ele>1273</ele>
        <time>2011-05-27T15:52:25Z</time>
      </trkpt>
      <trkpt lat="45.8123" lon="6.24818">
        <ele>1293</ele>
        <time>2011-05-27T15:54:28Z</time>
      </trkpt>
      <trkpt lat="45.812" lon="6.2491">
        <ele>1277</ele>
        <time>2011-05-27T15:55:22Z</time>
      </trkpt>
      <trkpt lat="45.8119" lon="6.24979">
        <ele>1294</ele>
        <time>2011-05-27T15:57:06Z</time>
      </trkpt>
      <trkpt lat="45.8114" lon="6.25113">
        <ele>1315</ele>
        <time>2011-05-27T15:59:21Z</time>
      </trkpt>
      <trkpt lat="45.8109" lon="6.2521">
        <ele>1329</ele>
        <time>2011-05-27T16:00:55Z</time>
      </trkpt>
      <trkpt lat="45.811" lon="6.25288">
        <ele>1329</ele>
        <time>2011-05-27T16:01:30Z</time>
      </trkpt>
      <trkpt lat="45.8113" lon="6.25335">
        <ele>1357</ele>
        <time>2011-05-27T16:03:39Z</time>
      </trkpt>
      <trkpt lat="45.8114" lon="6.25298">
        <ele>1357</ele>
        <time>2011-05-27T16:04:00Z</time>
      </trkpt>
      <trkpt lat="45.812" lon="6.25219">
        <ele>1361</ele>
        <time>2011-05-27T16:04:55Z</time>
      </trkpt>
      <trkpt lat="45.8123" lon="6.25185">
        <ele>1389</ele>
        <time>2011-05-27T16:06:56Z</time>
      </trkpt>
      <trkpt lat="45.8127" lon="6.25176">
        <ele>1389</ele>
        <time>2011-05-27T16:07:18Z</time>
      </trkpt>
      <trkpt lat="45.8125" lon="6.25218">
        <ele>1394</ele>
        <time>2011-05-27T16:07:54Z</time>
      </trkpt>
      <trkpt lat="45.8129" lon="6.25237">
        <ele>1394</ele>
        <time>2011-05-27T16:08:27Z</time>
      </trkpt>
      <trkpt lat="45.8132" lon="6.2528">
        <ele>1421</ele>
        <time>2011-05-27T16:10:33Z</time>
      </trkpt>
      <trkpt lat="45.814" lon="6.25257">
        <ele>1429</ele>
        <time>2011-05-27T16:11:41Z</time>
      </trkpt>
      <trkpt lat="45.8145" lon="6.25258">
        <ele>1429</ele>
        <time>2011-05-27T16:12:13Z</time>
      </trkpt>
      <trkpt lat="45.8149" lon="6.25244">
        <ele>1434</ele>
        <time>2011-05-27T16:12:51Z</time>
      </trkpt>
      <trkpt lat="45.8157" lon="6.25215">
        <ele>1455</ele>
        <time>2011-05-27T16:15:01Z</time>
      </trkpt>
      <trkpt lat="45.8163" lon="6.2524">
        <ele>1468</ele>
        <time>2011-05-27T16:16:25Z</time>
      </trkpt>
      <trkpt lat="45.8176" lon="6.25274">
        <ele>1478</ele>
        <time>2011-05-27T16:18:08Z</time>
      </trkpt>
      <trkpt lat="45.8181" lon="6.2527">
        <ele>1480</ele>
        <time>2011-05-27T16:18:43Z</time>
      </trkpt>
      <trkpt lat="45.8187" lon="6.25289">
        <ele>1480</ele>
        <time>2011-05-27T16:19:17Z</time>
      </trkpt>
      <trkpt lat="45.8191" lon="6.25314">
        <ele>1485</ele>
        <time>2011-05-27T16:20:02Z</time>
      </trkpt>
      <trkpt lat="45.8197" lon="6.25387">
        <ele>1461</ele>
        <time>2011-05-27T16:21:22Z</time>
      </trkpt>
      <trkpt lat="45.8213" lon="6.25406">
        <ele>1448</ele>
        <time>2011-05-27T16:22:50Z</time>
      </trkpt>
      <trkpt lat="45.8218" lon="6.25473">
        <ele>1441</ele>
        <time>2011-05-27T16:23:31Z</time>
      </trkpt>
      <trkpt lat="45.822" lon="6.25512">
        <ele>1441</ele>
        <time>2011-05-27T16:23:54Z</time>
      </trkpt>
      <trkpt lat="45.8226" lon="6.25573">
        <ele>1428</ele>
        <time>2011-05-27T16:24:42Z</time>
      </trkpt>
      <trkpt lat="45.8229" lon="6.2563">
        <ele>1393</ele>
        <time>2011-05-27T16:26:04Z</time>
      </trkpt>
      <trkpt lat="45.8232" lon="6.25652">
        <ele>1439</ele>
        <time>2011-05-27T16:27:53Z</time>
      </trkpt>
      <trkpt lat="45.8235" lon="6.25708">
        <ele>1439</ele>
        <time>2011-05-27T16:28:23Z</time>
      </trkpt>
      <trkpt lat="45.8239" lon="6.25722">
        <ele>1420</ele>
        <time>2011-05-27T16:29:27Z</time>
      </trkpt>
      <trkpt lat="45.8242" lon="6.25729">
        <ele>1420</ele>
        <time>2011-05-27T16:29:49Z</time>
      </trkpt>
      <trkpt lat="45.8251" lon="6.25787">
        <ele>1450</ele>
        <time>2011-05-27T16:32:54Z</time>
      </trkpt>
      <trkpt lat="45.8255" lon="6.25796">
        <ele>1409</ele>
        <time>2011-05-27T16:33:59Z</time>
      </trkpt>
      <trkpt lat="45.8262" lon="6.25795">
        <ele>1409</ele>
        <time>2011-05-27T16:34:42Z</time>
      </trkpt>
      <trkpt lat="45.8268" lon="6.25826">
        <ele>1431</ele>
        <time>2011-05-27T16:36:57Z</time>
      </trkpt>
      <trkpt lat="45.8276" lon="6.25922">
        <ele>1432</ele>
        <time>2011-05-27T16:38:01Z</time>
      </trkpt>
      <trkpt lat="45.8278" lon="6.26029">
        <ele>1405</ele>
        <time>2011-05-27T16:39:32Z</time>
      </trkpt>
      <trkpt lat="45.8279" lon="6.26096">
        <ele>1420</ele>
        <time>2011-05-27T16:41:04Z</time>
      </trkpt>
      <trkpt lat="45.8285" lon="6.26182">
        <ele>1417</ele>
        <time>2011-05-27T16:41:51Z</time>
      </trkpt>
      <trkpt lat="45.8287" lon="6.26251">
        <ele>1412</ele>
        <time>2011-05-27T16:42:21Z</time>
      </trkpt>
      <trkpt lat="45.8292" lon="6.26366">
        <ele>1418</ele>
        <time>2011-05-27T16:43:32Z</time>
      </trkpt>
      <trkpt lat="45.8296" lon="6.26425">
        <ele>1413</ele>
        <time>2011-05-27T16:44:01Z</time>
      </trkpt>
      <trkpt lat="45.8295" lon="6.26409">
        <ele>1413</ele>
        <time>2011-05-27T16:44:23Z</time>
      </trkpt>
      <trkpt lat="45.8301" lon="6.26452">
        <ele>1417</ele>
        <time>2011-05-27T16:45:10Z</time>
      </trkpt>
      <trkpt lat="45.8305" lon="6.26436">
        <ele>1424</ele>
        <time>2011-05-27T16:45:58Z</time>
      </trkpt>
      <trkpt lat="45.831" lon="6.26388">
        <ele>1424</ele>
        <time>2011-05-27T16:46:33Z</time>
      </trkpt>
      <trkpt lat="45.8315" lon="6.26396">
        <ele>1435</ele>
        <time>2011-05-27T16:47:43Z</time>
      </trkpt>
      <trkpt lat="45.8318" lon="6.26362">
        <ele>1426</ele>
        <time>2011-05-27T16:48:15Z</time>
      </trkpt>
      <trkpt lat="45.8321" lon="6.26304">
        <ele>1421</ele>
        <time>2011-05-27T16:48:43Z</time>
      </trkpt>
      <trkpt lat="45.8326" lon="6.26305">
        <ele>1421</ele>
        <time>2011-05-27T16:49:11Z</time>
      </trkpt>
      <trkpt lat="45.8328" lon="6.26363">
        <ele>1421</ele>
        <time>2011-05-27T16:49:40Z</time>
      </trkpt>
      <trkpt lat="45.8331" lon="6.26448">
        <ele>1400</ele>
        <time>2011-05-27T16:50:51Z</time>
      </trkpt>
      <trkpt lat="45.8334" lon="6.26487">
        <ele>1412</ele>
        <time>2011-05-27T16:52:05Z</time>
      </trkpt>
      <trkpt lat="45.8336" lon="6.26521">
        <ele>1412</ele>
        <time>2011-05-27T16:52:36Z</time>
      </trkpt>
      <trkpt lat="45.834" lon="6.26527">
        <ele>1369</ele>
        <time>2011-05-27T16:53:37Z</time>
      </trkpt>
      <trkpt lat="45.8343" lon="6.26555">
        <ele>1389</ele>
        <time>2011-05-27T16:55:40Z</time>
      </trkpt>
      <trkpt lat="45.8345" lon="6.26552">
        <ele>1367.78</ele>
        <time>2011-05-27T16:56:13Z</time>
      </trkpt>
      <trkpt lat="45.835" lon="6.26539">
        <ele>1317</ele>
        <time>2011-05-27T16:57:48Z</time>
      </trkpt>
      <trkpt lat="45.8353" lon="6.26566">
        <ele>1347</ele>
        <time>2011-05-27T17:00:15Z</time>
      </trkpt>
      <trkpt lat="45.8357" lon="6.26534">
        <ele>1316</ele>
        <time>2011-05-27T17:01:31Z</time>
      </trkpt>
      <trkpt lat="45.836" lon="6.26485">
        <ele>1316</ele>
        <time>2011-05-27T17:02:03Z</time>
      </trkpt>
      <trkpt lat="45.8365" lon="6.26524">
        <ele>1326</ele>
        <time>2011-05-27T17:03:13Z</time>
      </trkpt>
      <trkpt lat="45.8365" lon="6.26571">
        <ele>1350</ele>
        <time>2011-05-27T17:04:57Z</time>
      </trkpt>
      <trkpt lat="45.8373" lon="6.26642">
        <ele>1375</ele>
        <time>2011-05-27T17:07:34Z</time>
      </trkpt>
      <trkpt lat="45.8378" lon="6.26661">
        <ele>1375</ele>
        <time>2011-05-27T17:08:05Z</time>
      </trkpt>
      <trkpt lat="45.8381" lon="6.26691">
        <ele>1375</ele>
        <time>2011-05-27T17:08:28Z</time>
      </trkpt>
      <trkpt lat="45.8385" lon="6.26697">
        <ele>1375</ele>
        <time>2011-05-27T17:08:55Z</time>
      </trkpt>
      <trkpt lat="45.839" lon="6.26728">
        <ele>1404</ele>
        <time>2011-05-27T17:11:40Z</time>
      </trkpt>
      <trkpt lat="45.8395" lon="6.26749">
        <ele>1404</ele>
        <time>2011-05-27T17:12:10Z</time>
      </trkpt>
      <trkpt lat="45.8401" lon="6.26803">
        <ele>1424</ele>
        <time>2011-05-27T17:14:15Z</time>
      </trkpt>
      <trkpt lat="45.8406" lon="6.26723">
        <ele>1427</ele>
        <time>2011-05-27T17:15:09Z</time>
      </trkpt>
      <trkpt lat="45.8409" lon="6.26644">
        <ele>1428</ele>
        <time>2011-05-27T17:15:51Z</time>
      </trkpt>
      <trkpt lat="45.8413" lon="6.26594">
        <ele>1446</ele>
        <time>2011-05-27T17:17:42Z</time>
      </trkpt>
      <trkpt lat="45.8413" lon="6.26475">
        <ele>1466</ele>
        <time>2011-05-27T17:19:49Z</time>
      </trkpt>
      <trkpt lat="45.8409" lon="6.26389">
        <ele>1446</ele>
        <time>2011-05-27T17:20:56Z</time>
      </trkpt>
      <trkpt lat="45.8409" lon="6.26325">
        <ele>1464</ele>
        <time>2011-05-27T17:22:47Z</time>
      </trkpt>
      <trkpt lat="45.8412" lon="6.263">
        <ele>1464</ele>
        <time>2011-05-27T17:23:18Z</time>
      </trkpt>
      <trkpt lat="45.8414" lon="6.26341">
        <ele>1508</ele>
        <time>2011-05-27T17:25:05Z</time>
      </trkpt>
      <trkpt lat="45.8419" lon="6.26382">
        <ele>1488</ele>
        <time>2011-05-27T17:26:13Z</time>
      </trkpt>
      <trkpt lat="45.8425" lon="6.2641">
        <ele>1525</ele>
        <time>2011-05-27T17:29:14Z</time>
      </trkpt>
      <trkpt lat="45.8424" lon="6.26329">
        <ele>1542</ele>
        <time>2011-05-27T17:31:02Z</time>
      </trkpt>
      <trkpt lat="45.8426" lon="6.26301">
        <ele>1542</ele>
        <time>2011-05-27T17:31:34Z</time>
      </trkpt>
      <trkpt lat="45.8433" lon="6.26186">
        <ele>1589.9</ele>
        <time>2011-05-27T17:36:38Z</time>
      </trkpt>
      <trkpt lat="45.8435" lon="6.26145">
        <ele>1605.6</ele>
        <time>2011-05-27T17:37:01Z</time>
      </trkpt>
      <trkpt lat="45.8437" lon="6.26125">
        <ele>1620.8</ele>
        <time>2011-05-27T17:37:23Z</time>
      </trkpt>
      <trkpt lat="45.8441" lon="6.26112">
        <ele>1646.2</ele>
        <time>2011-05-27T17:37:45Z</time>
      </trkpt>
      <trkpt lat="45.8444" lon="6.26109">
        <ele>1657.1</ele>
        <time>2011-05-27T17:38:07Z</time>
      </trkpt>
      <trkpt lat="45.8446" lon="6.26051">
        <ele>1656.7</ele>
        <time>2011-05-27T17:38:35Z</time>
      </trkpt>
      <trkpt lat="45.8451" lon="6.26026">
        <ele>1656.7</ele>
        <time>2011-05-27T17:39:19Z</time>
      </trkpt>
      <trkpt lat="45.8458" lon="6.25993">
        <ele>1649</ele>
        <time>2011-05-27T17:41:23Z</time>
      </trkpt>
      <trkpt lat="45.8465" lon="6.25986">
        <ele>1640</ele>
        <time>2011-05-27T17:42:05Z</time>
      </trkpt>
      <trkpt lat="45.8471" lon="6.25977">
        <ele>1631</ele>
        <time>2011-05-27T17:42:42Z</time>
      </trkpt>
      <trkpt lat="45.8475" lon="6.25981">
        <ele>1631</ele>
        <time>2011-05-27T17:43:07Z</time>
      </trkpt>
      <trkpt lat="45.848" lon="6.25972">
        <ele>1623</ele>
        <time>2011-05-27T17:43:38Z</time>
      </trkpt>
      <trkpt lat="45.8493" lon="6.25959">
        <ele>1608</ele>
        <time>2011-05-27T17:44:52Z</time>
      </trkpt>
      <trkpt lat="45.8497" lon="6.25921">
        <ele>1603</ele>
        <time>2011-05-27T17:45:20Z</time>
      </trkpt>
      <trkpt lat="45.8511" lon="6.25857">
        <ele>1613</ele>
        <time>2011-05-27T17:47:12Z</time>
      </trkpt>
      <trkpt lat="45.8512" lon="6.25828">
        <ele>1613</ele>
        <time>2011-05-27T17:47:34Z</time>
      </trkpt>
      <trkpt lat="45.8516" lon="6.25811">
        <ele>1614</ele>
        <time>2011-05-27T17:48:02Z</time>
      </trkpt>
      <trkpt lat="45.8521" lon="6.25759">
        <ele>1618</ele>
        <time>2011-05-27T17:48:48Z</time>
      </trkpt>
      <trkpt lat="45.8523" lon="6.25689">
        <ele>1605</ele>
        <time>2011-05-27T17:49:33Z</time>
      </trkpt>
      <trkpt lat="45.8525" lon="6.25653">
        <ele>1605</ele>
        <time>2011-05-27T17:49:54Z</time>
      </trkpt>
      <trkpt lat="45.8529" lon="6.25605">
        <ele>1583</ele>
        <time>2011-05-27T17:51:10Z</time>
      </trkpt>
      <trkpt lat="45.853" lon="6.25551">
        <ele>1583</ele>
        <time>2011-05-27T17:51:33Z</time>
      </trkpt>
      <trkpt lat="45.8531" lon="6.25506">
        <ele>1558</ele>
        <time>2011-05-27T17:52:32Z</time>
      </trkpt>
      <trkpt lat="45.8531" lon="6.25461">
        <ele>1558</ele>
        <time>2011-05-27T17:52:56Z</time>
      </trkpt>
      <trkpt lat="45.8534" lon="6.25512">
        <ele>1558</ele>
        <time>2011-05-27T17:53:27Z</time>
      </trkpt>
      <trkpt lat="45.8533" lon="6.25471">
        <ele>1558</ele>
        <time>2011-05-27T17:53:49Z</time>
      </trkpt>
      <trkpt lat="45.853" lon="6.25386">
        <ele>1533</ele>
        <time>2011-05-27T17:55:14Z</time>
      </trkpt>
      <trkpt lat="45.8528" lon="6.25276">
        <ele>1580</ele>
        <time>2011-05-27T17:59:12Z</time>
      </trkpt>
      <trkpt lat="45.8528" lon="6.25117">
        <ele>1571</ele>
        <time>2011-05-27T18:00:16Z</time>
      </trkpt>
      <trkpt lat="45.8531" lon="6.25067">
        <ele>1576</ele>
        <time>2011-05-27T18:00:55Z</time>
      </trkpt>
      <trkpt lat="45.8531" lon="6.24993">
        <ele>1595</ele>
        <time>2011-05-27T18:02:54Z</time>
      </trkpt>
      <trkpt lat="45.8536" lon="6.24928">
        <ele>1595</ele>
        <time>2011-05-27T18:03:34Z</time>
      </trkpt>
      <trkpt lat="45.8542" lon="6.24856">
        <ele>1609</ele>
        <time>2011-05-27T18:05:08Z</time>
      </trkpt>
      <trkpt lat="45.8547" lon="6.24817">
        <ele>1614</ele>
        <time>2011-05-27T18:05:57Z</time>
      </trkpt>
      <trkpt lat="45.8549" lon="6.24784">
        <ele>1617</ele>
        <time>2011-05-27T18:06:26Z</time>
      </trkpt>
      <trkpt lat="45.8556" lon="6.24748">
        <ele>1624</ele>
        <time>2011-05-27T18:07:27Z</time>
      </trkpt>
      <trkpt lat="45.8564" lon="6.24679">
        <ele>1628</ele>
        <time>2011-05-27T18:08:30Z</time>
      </trkpt>
      <trkpt lat="45.8567" lon="6.24555">
        <ele>1622</ele>
        <time>2011-05-27T18:09:22Z</time>
      </trkpt>
      <trkpt lat="45.8563" lon="6.24584">
        <ele>1622</ele>
        <time>2011-05-27T18:10:04Z</time>
      </trkpt>
      <trkpt lat="45.856" lon="6.24581">
        <ele>1581</ele>
        <time>2011-05-27T18:11:14Z</time>
      </trkpt>
      <trkpt lat="45.8559" lon="6.24501">
        <ele>1565.1</ele>
        <time>2011-05-27T18:14:07Z</time>
      </trkpt>
      <trkpt lat="45.8556" lon="6.24539">
        <ele>1552</ele>
        <time>2011-05-27T18:14:32Z</time>
      </trkpt>
      <trkpt lat="45.8553" lon="6.24503">
        <ele>1503</ele>
        <time>2011-05-27T18:15:35Z</time>
      </trkpt>
      <trkpt lat="45.8551" lon="6.24496">
        <ele>1503</ele>
        <time>2011-05-27T18:16:08Z</time>
      </trkpt>
      <trkpt lat="45.855" lon="6.24434">
        <ele>1496</ele>
        <time>2011-05-27T18:16:37Z</time>
      </trkpt>
      <trkpt lat="45.8546" lon="6.24365">
        <ele>1471</ele>
        <time>2011-05-27T18:18:03Z</time>
      </trkpt>
      <trkpt lat="45.8543" lon="6.24347">
        <ele>1420</ele>
        <time>2011-05-27T18:19:25Z</time>
      </trkpt>
      <trkpt lat="45.8541" lon="6.24265">
        <ele>1393</ele>
        <time>2011-05-27T18:20:58Z</time>
      </trkpt>
      <trkpt lat="45.854" lon="6.24181">
        <ele>1372</ele>
        <time>2011-05-27T18:22:10Z</time>
      </trkpt>
      <trkpt lat="45.8535" lon="6.24098">
        <ele>1294</ele>
        <time>2011-05-27T18:24:13Z</time>
      </trkpt>
      <trkpt lat="45.8535" lon="6.24089">
        <ele>1292.41</ele>
        <time>2011-05-27T18:24:19Z</time>
      </trkpt>
      <trkpt lat="45.8534" lon="6.24022">
        <ele>1281</ele>
        <time>2011-05-27T18:24:58Z</time>
      </trkpt>
      <trkpt lat="45.853" lon="6.24007">
        <ele>1281</ele>
        <time>2011-05-27T18:25:31Z</time>
      </trkpt>
      <trkpt lat="45.8528" lon="6.23927">
        <ele>1216</ele>
        <time>2011-05-27T18:27:20Z</time>
      </trkpt>
      <trkpt lat="45.8526" lon="6.23834">
        <ele>1207</ele>
        <time>2011-05-27T18:28:02Z</time>
      </trkpt>
      <trkpt lat="45.8519" lon="6.23692">
        <ele>1160</ele>
        <time>2011-05-27T18:30:44Z</time>
      </trkpt>
      <trkpt lat="45.8517" lon="6.23568">
        <ele>1153</ele>
        <time>2011-05-27T18:31:34Z</time>
      </trkpt>
      <trkpt lat="45.8518" lon="6.23516">
        <ele>1137</ele>
        <time>2011-05-27T18:32:29Z</time>
      </trkpt>
      <trkpt lat="45.8519" lon="6.23451">
        <ele>1119</ele>
        <time>2011-05-27T18:33:32Z</time>
      </trkpt>
      <trkpt lat="45.8516" lon="6.23435">
        <ele>1119</ele>
        <time>2011-05-27T18:34:03Z</time>
      </trkpt>
      <trkpt lat="45.8508" lon="6.23475">
        <ele>1097</ele>
        <time>2011-05-27T18:35:19Z</time>
      </trkpt>
      <trkpt lat="45.8502" lon="6.2355">
        <ele>1069</ele>
        <time>2011-05-27T18:36:55Z</time>
      </trkpt>
      <trkpt lat="45.85" lon="6.23501">
        <ele>1062</ele>
        <time>2011-05-27T18:37:24Z</time>
      </trkpt>
      <trkpt lat="45.8503" lon="6.23454">
        <ele>1051</ele>
        <time>2011-05-27T18:38:03Z</time>
      </trkpt>
      <trkpt lat="45.8506" lon="6.23419">
        <ele>1087</ele>
        <time>2011-05-27T18:40:00Z</time>
      </trkpt>
      <trkpt lat="45.8513" lon="6.23358">
        <ele>1105</ele>
        <time>2011-05-27T18:41:57Z</time>
      </trkpt>
      <trkpt lat="45.8517" lon="6.23317">
        <ele>1105</ele>
        <time>2011-05-27T18:42:25Z</time>
      </trkpt>
      <trkpt lat="45.8528" lon="6.23304">
        <ele>1115</ele>
        <time>2011-05-27T18:44:00Z</time>
      </trkpt>
      <trkpt lat="45.8536" lon="6.23328">
        <ele>1103</ele>
        <time>2011-05-27T18:44:50Z</time>
      </trkpt>
      <trkpt lat="45.8541" lon="6.23336">
        <ele>1105</ele>
        <time>2011-05-27T18:45:24Z</time>
      </trkpt>
      <trkpt lat="45.8545" lon="6.23301">
        <ele>1105</ele>
        <time>2011-05-27T18:45:57Z</time>
      </trkpt>
      <trkpt lat="45.8548" lon="6.23259">
        <ele>1103</ele>
        <time>2011-05-27T18:46:19Z</time>
      </trkpt>
      <trkpt lat="45.8547" lon="6.23204">
        <ele>1093</ele>
        <time>2011-05-27T18:46:53Z</time>
      </trkpt>
      <trkpt lat="45.8545" lon="6.23146">
        <ele>1074</ele>
        <time>2011-05-27T18:47:59Z</time>
      </trkpt>
      <trkpt lat="45.8541" lon="6.23063">
        <ele>1078</ele>
        <time>2011-05-27T18:48:50Z</time>
      </trkpt>
      <trkpt lat="45.8537" lon="6.22959">
        <ele>1040</ele>
        <time>2011-05-27T18:51:02Z</time>
      </trkpt>
      <trkpt lat="45.8539" lon="6.22862">
        <ele>1040</ele>
        <time>2011-05-27T18:51:45Z</time>
      </trkpt>
      <trkpt lat="45.8545" lon="6.22753">
        <ele>1023</ele>
        <time>2011-05-27T18:52:49Z</time>
      </trkpt>
      <trkpt lat="45.8548" lon="6.22687">
        <ele>1004</ele>
        <time>2011-05-27T18:53:55Z</time>
      </trkpt>
      <trkpt lat="45.8548" lon="6.22625">
        <ele>1004</ele>
        <time>2011-05-27T18:54:22Z</time>
      </trkpt>
      <trkpt lat="45.8546" lon="6.2258">
        <ele>1000</ele>
        <time>2011-05-27T18:54:43Z</time>
      </trkpt>
      <trkpt lat="45.8541" lon="6.22547">
        <ele>998</ele>
        <time>2011-05-27T18:55:16Z</time>
      </trkpt>
      <trkpt lat="45.8546" lon="6.2252">
        <ele>996</ele>
        <time>2011-05-27T18:55:47Z</time>
      </trkpt>
      <trkpt lat="45.855" lon="6.2249">
        <ele>996</ele>
        <time>2011-05-27T18:56:13Z</time>
      </trkpt>
      <trkpt lat="45.8559" lon="6.2246">
        <ele>991</ele>
        <time>2011-05-27T18:57:05Z</time>
      </trkpt>
      <trkpt lat="45.8561" lon="6.22491">
        <ele>991</ele>
        <time>2011-05-27T18:57:27Z</time>
      </trkpt>
      <trkpt lat="45.8565" lon="6.22495">
        <ele>972</ele>
        <time>2011-05-27T18:58:33Z</time>
      </trkpt>
      <trkpt lat="45.8571" lon="6.22426">
        <ele>961</ele>
        <time>2011-05-27T18:59:19Z</time>
      </trkpt>
      <trkpt lat="45.8573" lon="6.22423">
        <ele>961</ele>
        <time>2011-05-27T18:59:53Z</time>
      </trkpt>
      <trkpt lat="45.8577" lon="6.22466">
        <ele>951</ele>
        <time>2011-05-27T19:00:30Z</time>
      </trkpt>
      <trkpt lat="45.858" lon="6.22507">
        <ele>919</ele>
        <time>2011-05-27T19:01:52Z</time>
      </trkpt>
      <trkpt lat="45.8584" lon="6.22511">
        <ele>919</ele>
        <time>2011-05-27T19:02:15Z</time>
      </trkpt>
      <trkpt lat="45.8586" lon="6.22498">
        <ele>919</ele>
        <time>2011-05-27T19:02:37Z</time>
      </trkpt>
      <trkpt lat="45.8589" lon="6.22441">
        <ele>866</ele>
        <time>2011-05-27T19:04:24Z</time>
      </trkpt>
      <trkpt lat="45.8587" lon="6.22378">
        <ele>920</ele>
        <time>2011-05-27T19:06:44Z</time>
      </trkpt>
      <trkpt lat="45.8588" lon="6.22309">
        <ele>850</ele>
        <time>2011-05-27T19:08:08Z</time>
      </trkpt>
      <trkpt lat="45.8588" lon="6.22257">
        <ele>836</ele>
        <time>2011-05-27T19:08:57Z</time>
      </trkpt>
      <trkpt lat="45.8588" lon="6.22171">
        <ele>814</ele>
        <time>2011-05-27T19:10:13Z</time>
      </trkpt>
      <trkpt lat="45.8596" lon="6.22219">
        <ele>800</ele>
        <time>2011-05-27T19:11:14Z</time>
      </trkpt>
      <trkpt lat="45.86" lon="6.2211">
        <ele>774</ele>
        <time>2011-05-27T19:12:44Z</time>
      </trkpt>
      <trkpt lat="45.86" lon="6.21951">
        <ele>752</ele>
        <time>2011-05-27T19:14:04Z</time>
      </trkpt>
      <trkpt lat="45.8598" lon="6.21878">
        <ele>752</ele>
        <time>2011-05-27T19:14:36Z</time>
      </trkpt>
      <trkpt lat="45.8598" lon="6.21767">
        <ele>719</ele>
        <time>2011-05-27T19:16:31Z</time>
      </trkpt>
      <trkpt lat="45.8597" lon="6.21702">
        <ele>707</ele>
        <time>2011-05-27T19:17:12Z</time>
      </trkpt>
      <trkpt lat="45.8588" lon="6.21448">
        <ele>687</ele>
        <time>2011-05-27T19:19:06Z</time>
      </trkpt>
      <trkpt lat="45.8585" lon="6.21405">
        <ele>687</ele>
        <time>2011-05-27T19:19:33Z</time>
      </trkpt>
      <trkpt lat="45.8581" lon="6.21398">
        <ele>687</ele>
        <time>2011-05-27T19:19:58Z</time>
      </trkpt>
      <trkpt lat="45.8579" lon="6.2132">
        <ele>679</ele>
        <time>2011-05-27T19:20:34Z</time>
      </trkpt>
      <trkpt lat="45.8577" lon="6.21249">
        <ele>661</ele>
        <time>2011-05-27T19:21:37Z</time>
      </trkpt>
      <trkpt lat="45.8574" lon="6.21149">
        <ele>650</ele>
        <time>2011-05-27T19:22:23Z</time>
      </trkpt>
      <trkpt lat="45.8574" lon="6.21084">
        <ele>645</ele>
        <time>2011-05-27T19:22:49Z</time>
      </trkpt>
      <trkpt lat="45.8572" lon="6.20986">
        <ele>644</ele>
        <time>2011-05-27T19:23:32Z</time>
      </trkpt>
      <trkpt lat="45.8569" lon="6.2095">
        <ele>614</ele>
        <time>2011-05-27T19:24:40Z</time>
      </trkpt>
      <trkpt lat="45.857" lon="6.20895">
        <ele>614</ele>
        <time>2011-05-27T19:25:07Z</time>
      </trkpt>
      <trkpt lat="45.8573" lon="6.20849">
        <ele>600</ele>
        <time>2011-05-27T19:25:56Z</time>
      </trkpt>
      <trkpt lat="45.8574" lon="6.208">
        <ele>600</ele>
        <time>2011-05-27T19:26:19Z</time>
      </trkpt>
      <trkpt lat="45.8576" lon="6.20747">
        <ele>568</ele>
        <time>2011-05-27T19:27:35Z</time>
      </trkpt>
      <trkpt lat="45.8578" lon="6.20691">
        <ele>553</ele>
        <time>2011-05-27T19:28:27Z</time>
      </trkpt>
      <trkpt lat="45.8579" lon="6.20638">
        <ele>567</ele>
        <time>2011-05-27T19:29:56Z</time>
      </trkpt>
      <trkpt lat="45.8577" lon="6.20555">
        <ele>544</ele>
        <time>2011-05-27T19:31:16Z</time>
      </trkpt>
      <trkpt lat="45.8574" lon="6.20467">
        <ele>538</ele>
        <time>2011-05-27T19:31:53Z</time>
      </trkpt>
      <trkpt lat="45.8576" lon="6.20374">
        <ele>529</ele>
        <time>2011-05-27T19:32:33Z</time>
      </trkpt>
      <trkpt lat="45.8584" lon="6.20249">
        <ele>521</ele>
        <time>2011-05-27T19:33:40Z</time>
      </trkpt>
      <trkpt lat="45.8584" lon="6.20245">
        <ele>520.848</ele>
        <time>2011-05-27T19:33:41Z</time>
      </trkpt>
      <trkpt lat="45.8585" lon="6.2016">
        <ele>518</ele>
        <time>2011-05-27T19:34:15Z</time>
      </trkpt>
      <trkpt lat="45.8587" lon="6.20057">
        <ele>510</ele>
        <time>2011-05-27T19:35:00Z</time>
      </trkpt>
      <trkpt lat="45.8592" lon="6.20028">
        <ele>506</ele>
        <time>2011-05-27T19:35:28Z</time>
      </trkpt>
      <trkpt lat="45.8595" lon="6.19982">
        <ele>506</ele>
        <time>2011-05-27T19:35:55Z</time>
      </trkpt>
      <trkpt lat="45.8595" lon="6.19889">
        <ele>501</ele>
        <time>2011-05-27T19:36:31Z</time>
      </trkpt>
      <trkpt lat="45.8597" lon="6.19834">
        <ele>494</ele>
        <time>2011-05-27T19:36:58Z</time>
      </trkpt>
      <trkpt lat="45.8601" lon="6.19803">
        <ele>494</ele>
        <time>2011-05-27T19:37:33Z</time>
      </trkpt>
      <trkpt lat="45.8608" lon="6.19768">
        <ele>492</ele>
        <time>2011-05-27T19:38:11Z</time>
      </trkpt>
      <trkpt lat="45.8612" lon="6.1987">
        <ele>493</ele>
        <time>2011-05-27T19:39:05Z</time>
      </trkpt>
      <trkpt lat="45.861" lon="6.19922">
        <ele>494</ele>
        <time>2011-05-27T19:39:32Z</time>
      </trkpt>
      <trkpt lat="45.8611" lon="6.19991">
        <ele>496</ele>
        <time>2011-05-27T19:40:07Z</time>
      </trkpt>
      <trkpt lat="45.8617" lon="6.20104">
        <ele>501</ele>
        <time>2011-05-27T19:41:20Z</time>
      </trkpt>
      <trkpt lat="45.8602" lon="6.20193">
        <ele>505</ele>
        <time>2011-05-27T19:43:10Z</time>
      </trkpt>
      <trkpt lat="45.8596" lon="6.2021">
        <ele>511</ele>
        <time>2011-05-27T19:44:03Z</time>
      </trkpt>
      <trkpt lat="45.8586" lon="6.20263">
        <ele>521</ele>
        <time>2011-05-27T19:45:37Z</time>
      </trkpt>
      <trkpt lat="45.8578" lon="6.20343">
        <ele>529</ele>
        <time>2011-05-27T19:46:56Z</time>
      </trkpt>
      <trkpt lat="45.8583" lon="6.20461">
        <ele>540</ele>
        <time>2011-05-27T19:48:24Z</time>
      </trkpt>
      <trkpt lat="45.8587" lon="6.20503">
        <ele>540</ele>
        <time>2011-05-27T19:48:53Z</time>
      </trkpt>
      <trkpt lat="45.8597" lon="6.20474">
        <ele>560</ele>
        <time>2011-05-27T19:51:08Z</time>
      </trkpt>
      <trkpt lat="45.8606" lon="6.20394">
        <ele>553</ele>
        <time>2011-05-27T19:52:09Z</time>
      </trkpt>
      <trkpt lat="45.8612" lon="6.20342">
        <ele>525</ele>
        <time>2011-05-27T19:53:47Z</time>
      </trkpt>
      <trkpt lat="45.8622" lon="6.20334">
        <ele>556</ele>
        <time>2011-05-27T19:57:04Z</time>
      </trkpt>
      <trkpt lat="45.8628" lon="6.20355">
        <ele>556</ele>
        <time>2011-05-27T19:57:45Z</time>
      </trkpt>
      <trkpt lat="45.8637" lon="6.20421">
        <ele>594</ele>
        <time>2011-05-27T20:01:45Z</time>
      </trkpt>
      <trkpt lat="45.8642" lon="6.20463">
        <ele>601</ele>
        <time>2011-05-27T20:02:44Z</time>
      </trkpt>
      <trkpt lat="45.8651" lon="6.20644">
        <ele>593</ele>
        <time>2011-05-27T20:04:10Z</time>
      </trkpt>
      <trkpt lat="45.8656" lon="6.207">
        <ele>582</ele>
        <time>2011-05-27T20:04:53Z</time>
      </trkpt>
      <trkpt lat="45.8665" lon="6.20818">
        <ele>580</ele>
        <time>2011-05-27T20:06:08Z</time>
      </trkpt>
      <trkpt lat="45.8669" lon="6.20908">
        <ele>583</ele>
        <time>2011-05-27T20:06:59Z</time>
      </trkpt>
      <trkpt lat="45.8672" lon="6.20959">
        <ele>590</ele>
        <time>2011-05-27T20:07:51Z</time>
      </trkpt>
      <trkpt lat="45.8678" lon="6.20982">
        <ele>590</ele>
        <time>2011-05-27T20:08:29Z</time>
      </trkpt>
      <trkpt lat="45.8683" lon="6.20988">
        <ele>600</ele>
        <time>2011-05-27T20:09:35Z</time>
      </trkpt>
      <trkpt lat="45.8689" lon="6.21009">
        <ele>602</ele>
        <time>2011-05-27T20:10:18Z</time>
      </trkpt>
      <trkpt lat="45.8695" lon="6.21044">
        <ele>605</ele>
        <time>2011-05-27T20:11:04Z</time>
      </trkpt>
      <trkpt lat="45.8701" lon="6.20944">
        <ele>613</ele>
        <time>2011-05-27T20:12:22Z</time>
      </trkpt>
      <trkpt lat="45.8704" lon="6.20893">
        <ele>613</ele>
        <time>2011-05-27T20:12:49Z</time>
      </trkpt>
      <trkpt lat="45.8705" lon="6.20826">
        <ele>632</ele>
        <time>2011-05-27T20:14:50Z</time>
      </trkpt>
      <trkpt lat="45.8703" lon="6.20778">
        <ele>630</ele>
        <time>2011-05-27T20:15:13Z</time>
      </trkpt>
      <trkpt lat="45.8701" lon="6.20728">
        <ele>630</ele>
        <time>2011-05-27T20:15:44Z</time>
      </trkpt>
      <trkpt lat="45.8705" lon="6.20729">
        <ele>641</ele>
        <time>2011-05-27T20:16:55Z</time>
      </trkpt>
      <trkpt lat="45.8708" lon="6.20778">
        <ele>641</ele>
        <time>2011-05-27T20:17:25Z</time>
      </trkpt>
      <trkpt lat="45.8716" lon="6.20859">
        <ele>644</ele>
        <time>2011-05-27T20:18:32Z</time>
      </trkpt>
      <trkpt lat="45.8726" lon="6.21023">
        <ele>636</ele>
        <time>2011-05-27T20:19:55Z</time>
      </trkpt>
      <trkpt lat="45.8728" lon="6.21069">
        <ele>631</ele>
        <time>2011-05-27T20:20:20Z</time>
      </trkpt>
      <trkpt lat="45.8733" lon="6.21011">
        <ele>642</ele>
        <time>2011-05-27T20:21:37Z</time>
      </trkpt>
      <trkpt lat="45.8731" lon="6.20942">
        <ele>650</ele>
        <time>2011-05-27T20:22:36Z</time>
      </trkpt>
      <trkpt lat="45.8723" lon="6.20819">
        <ele>653</ele>
        <time>2011-05-27T20:23:52Z</time>
      </trkpt>
      <trkpt lat="45.8719" lon="6.20745">
        <ele>653</ele>
        <time>2011-05-27T20:24:32Z</time>
      </trkpt>
      <trkpt lat="45.8722" lon="6.20722">
        <ele>666</ele>
        <time>2011-05-27T20:25:57Z</time>
      </trkpt>
      <trkpt lat="45.8734" lon="6.20705">
        <ele>694</ele>
        <time>2011-05-27T20:29:00Z</time>
      </trkpt>
      <trkpt lat="45.8731" lon="6.20659">
        <ele>694</ele>
        <time>2011-05-27T20:29:32Z</time>
      </trkpt>
      <trkpt lat="45.8727" lon="6.20614">
        <ele>696</ele>
        <time>2011-05-27T20:30:10Z</time>
      </trkpt>
      <trkpt lat="45.872" lon="6.20573">
        <ele>678</ele>
        <time>2011-05-27T20:31:13Z</time>
      </trkpt>
      <trkpt lat="45.8715" lon="6.20517">
        <ele>701</ele>
        <time>2011-05-27T20:33:40Z</time>
      </trkpt>
      <trkpt lat="45.8713" lon="6.20455">
        <ele>745</ele>
        <time>2011-05-27T20:36:20Z</time>
      </trkpt>
      <trkpt lat="45.8718" lon="6.20455">
        <ele>745</ele>
        <time>2011-05-27T20:36:54Z</time>
      </trkpt>
      <trkpt lat="45.8725" lon="6.20447">
        <ele>774</ele>
        <time>2011-05-27T20:39:58Z</time>
      </trkpt>
      <trkpt lat="45.8731" lon="6.2044">
        <ele>785</ele>
        <time>2011-05-27T20:41:13Z</time>
      </trkpt>
      <trkpt lat="45.8735" lon="6.20435">
        <ele>785</ele>
        <time>2011-05-27T20:41:38Z</time>
      </trkpt>
      <trkpt lat="45.8742" lon="6.20455">
        <ele>802</ele>
        <time>2011-05-27T20:43:29Z</time>
      </trkpt>
      <trkpt lat="45.8747" lon="6.20444">
        <ele>812</ele>
        <time>2011-05-27T20:44:36Z</time>
      </trkpt>
      <trkpt lat="45.8755" lon="6.20426">
        <ele>819.846</ele>
        <time>2011-05-27T20:45:49Z</time>
      </trkpt>
      <trkpt lat="45.8759" lon="6.20416">
        <ele>824</ele>
        <time>2011-05-27T20:46:28Z</time>
      </trkpt>
      <trkpt lat="45.8766" lon="6.20402">
        <ele>830</ele>
        <time>2011-05-27T20:47:24Z</time>
      </trkpt>
      <trkpt lat="45.8776" lon="6.20376">
        <ele>829</ele>
        <time>2011-05-27T20:48:25Z</time>
      </trkpt>
      <trkpt lat="45.8779" lon="6.20319">
        <ele>877</ele>
        <time>2011-05-27T20:51:05Z</time>
      </trkpt>
      <trkpt lat="45.8781" lon="6.20262">
        <ele>879</ele>
        <time>2011-05-27T20:51:37Z</time>
      </trkpt>
      <trkpt lat="45.8788" lon="6.20253">
        <ele>875</ele>
        <time>2011-05-27T20:52:18Z</time>
      </trkpt>
      <trkpt lat="45.8791" lon="6.20254">
        <ele>875</ele>
        <time>2011-05-27T20:52:41Z</time>
      </trkpt>
      <trkpt lat="45.8798" lon="6.20234">
        <ele>871</ele>
        <time>2011-05-27T20:53:22Z</time>
      </trkpt>
      <trkpt lat="45.8802" lon="6.20214">
        <ele>871</ele>
        <time>2011-05-27T20:53:47Z</time>
      </trkpt>
      <trkpt lat="45.8805" lon="6.20185">
        <ele>896</ele>
        <time>2011-05-27T20:55:34Z</time>
      </trkpt>
      <trkpt lat="45.881" lon="6.20122">
        <ele>923</ele>
        <time>2011-05-27T20:58:25Z</time>
      </trkpt>
      <trkpt lat="45.8812" lon="6.20075">
        <ele>923</ele>
        <time>2011-05-27T20:58:50Z</time>
      </trkpt>
      <trkpt lat="45.8817" lon="6.20032">
        <ele>952</ele>
        <time>2011-05-27T21:01:49Z</time>
      </trkpt>
      <trkpt lat="45.882" lon="6.20002">
        <ele>952</ele>
        <time>2011-05-27T21:02:15Z</time>
      </trkpt>
      <trkpt lat="45.8823" lon="6.20071">
        <ele>948</ele>
        <time>2011-05-27T21:02:51Z</time>
      </trkpt>
      <trkpt lat="45.8828" lon="6.20103">
        <ele>948</ele>
        <time>2011-05-27T21:03:25Z</time>
      </trkpt>
      <trkpt lat="45.8832" lon="6.20101">
        <ele>974</ele>
        <time>2011-05-27T21:05:36Z</time>
      </trkpt>
      <trkpt lat="45.8839" lon="6.2012">
        <ele>990</ele>
        <time>2011-05-27T21:07:22Z</time>
      </trkpt>
      <trkpt lat="45.8846" lon="6.20155">
        <ele>946</ele>
        <time>2011-05-27T21:09:19Z</time>
      </trkpt>
      <trkpt lat="45.885" lon="6.20146">
        <ele>948</ele>
        <time>2011-05-27T21:09:53Z</time>
      </trkpt>
      <trkpt lat="45.8855" lon="6.20184">
        <ele>956</ele>
        <time>2011-05-27T21:10:52Z</time>
      </trkpt>
      <trkpt lat="45.8864" lon="6.20212">
        <ele>927</ele>
        <time>2011-05-27T21:12:33Z</time>
      </trkpt>
      <trkpt lat="45.8872" lon="6.20198">
        <ele>970</ele>
        <time>2011-05-27T21:16:39Z</time>
      </trkpt>
      <trkpt lat="45.8875" lon="6.20181">
        <ele>970</ele>
        <time>2011-05-27T21:17:02Z</time>
      </trkpt>
      <trkpt lat="45.8882" lon="6.20191">
        <ele>980</ele>
        <time>2011-05-27T21:18:16Z</time>
      </trkpt>
      <trkpt lat="45.8886" lon="6.20173">
        <ele>980</ele>
        <time>2011-05-27T21:18:44Z</time>
      </trkpt>
      <trkpt lat="45.8892" lon="6.20196">
        <ele>995</ele>
        <time>2011-05-27T21:20:22Z</time>
      </trkpt>
      <trkpt lat="45.8905" lon="6.20204">
        <ele>1019</ele>
        <time>2011-05-27T21:23:07Z</time>
      </trkpt>
      <trkpt lat="45.891" lon="6.20196">
        <ele>1019</ele>
        <time>2011-05-27T21:23:35Z</time>
      </trkpt>
      <trkpt lat="45.8919" lon="6.20187">
        <ele>1033</ele>
        <time>2011-05-27T21:25:17Z</time>
      </trkpt>
      <trkpt lat="45.8923" lon="6.20195">
        <ele>1053</ele>
        <time>2011-05-27T21:27:22Z</time>
      </trkpt>
      <trkpt lat="45.8927" lon="6.20193">
        <ele>1053</ele>
        <time>2011-05-27T21:27:49Z</time>
      </trkpt>
      <trkpt lat="45.8932" lon="6.20207">
        <ele>1069</ele>
        <time>2011-05-27T21:29:32Z</time>
      </trkpt>
      <trkpt lat="45.8936" lon="6.20208">
        <ele>1069</ele>
        <time>2011-05-27T21:29:58Z</time>
      </trkpt>
      <trkpt lat="45.8941" lon="6.20197">
        <ele>1072</ele>
        <time>2011-05-27T21:30:39Z</time>
      </trkpt>
      <trkpt lat="45.8945" lon="6.20179">
        <ele>1072</ele>
        <time>2011-05-27T21:31:02Z</time>
      </trkpt>
      <trkpt lat="45.8949" lon="6.20163">
        <ele>1072</ele>
        <time>2011-05-27T21:31:29Z</time>
      </trkpt>
      <trkpt lat="45.8951" lon="6.20082">
        <ele>1098</ele>
        <time>2011-05-27T21:34:16Z</time>
      </trkpt>
      <trkpt lat="45.8954" lon="6.20039">
        <ele>1084</ele>
        <time>2011-05-27T21:35:06Z</time>
      </trkpt>
      <trkpt lat="45.8953" lon="6.20033">
        <ele>1081.36</ele>
        <time>2011-05-27T21:35:14Z</time>
      </trkpt>
      <trkpt lat="45.895" lon="6.19954">
        <ele>1046</ele>
        <time>2011-05-27T21:37:05Z</time>
      </trkpt>
      <trkpt lat="45.8947" lon="6.1992">
        <ele>1046</ele>
        <time>2011-05-27T21:37:28Z</time>
      </trkpt>
      <trkpt lat="45.8937" lon="6.19829">
        <ele>1052</ele>
        <time>2011-05-27T21:38:54Z</time>
      </trkpt>
      <trkpt lat="45.8934" lon="6.19779">
        <ele>1026</ele>
        <time>2011-05-27T21:40:15Z</time>
      </trkpt>
      <trkpt lat="45.893" lon="6.1975">
        <ele>1026</ele>
        <time>2011-05-27T21:40:47Z</time>
      </trkpt>
      <trkpt lat="45.8923" lon="6.19652">
        <ele>1031</ele>
        <time>2011-05-27T21:41:57Z</time>
      </trkpt>
      <trkpt lat="45.8915" lon="6.1956">
        <ele>1044</ele>
        <time>2011-05-27T21:43:41Z</time>
      </trkpt>
      <trkpt lat="45.8911" lon="6.19543">
        <ele>1079</ele>
        <time>2011-05-27T21:45:29Z</time>
      </trkpt>
      <trkpt lat="45.8906" lon="6.19453">
        <ele>1053</ele>
        <time>2011-05-27T21:47:00Z</time>
      </trkpt>
      <trkpt lat="45.8901" lon="6.19403">
        <ele>1068</ele>
        <time>2011-05-27T21:48:39Z</time>
      </trkpt>
      <trkpt lat="45.8897" lon="6.19344">
        <ele>1070</ele>
        <time>2011-05-27T21:49:18Z</time>
      </trkpt>
      <trkpt lat="45.8903" lon="6.1936">
        <ele>1070</ele>
        <time>2011-05-27T21:49:54Z</time>
      </trkpt>
      <trkpt lat="45.891" lon="6.19359">
        <ele>1075</ele>
        <time>2011-05-27T21:50:52Z</time>
      </trkpt>
      <trkpt lat="45.8915" lon="6.19347">
        <ele>1062</ele>
        <time>2011-05-27T21:51:38Z</time>
      </trkpt>
      <trkpt lat="45.8923" lon="6.193">
        <ele>1045</ele>
        <time>2011-05-27T21:52:42Z</time>
      </trkpt>
      <trkpt lat="45.8926" lon="6.19255">
        <ele>1087</ele>
        <time>2011-05-27T21:55:00Z</time>
      </trkpt>
      <trkpt lat="45.8923" lon="6.19237">
        <ele>1087</ele>
        <time>2011-05-27T21:55:25Z</time>
      </trkpt>
      <trkpt lat="45.8907" lon="6.19214">
        <ele>1109</ele>
        <time>2011-05-27T21:58:14Z</time>
      </trkpt>
      <trkpt lat="45.8905" lon="6.19166">
        <ele>1144</ele>
        <time>2011-05-27T22:00:13Z</time>
      </trkpt>
      <trkpt lat="45.8908" lon="6.19141">
        <ele>1144</ele>
        <time>2011-05-27T22:00:36Z</time>
      </trkpt>
      <trkpt lat="45.8911" lon="6.19115">
        <ele>1179</ele>
        <time>2011-05-27T22:02:49Z</time>
      </trkpt>
      <trkpt lat="45.8907" lon="6.19113">
        <ele>1179</ele>
        <time>2011-05-27T22:03:13Z</time>
      </trkpt>
      <trkpt lat="45.8905" lon="6.19055">
        <ele>1179</ele>
        <time>2011-05-27T22:03:41Z</time>
      </trkpt>
      <trkpt lat="45.891" lon="6.18975">
        <ele>1210</ele>
        <time>2011-05-27T22:07:00Z</time>
      </trkpt>
      <trkpt lat="45.8913" lon="6.18946">
        <ele>1245</ele>
        <time>2011-05-27T22:09:06Z</time>
      </trkpt>
      <trkpt lat="45.8917" lon="6.18935">
        <ele>1245</ele>
        <time>2011-05-27T22:09:38Z</time>
      </trkpt>
      <trkpt lat="45.892" lon="6.18914">
        <ele>1245</ele>
        <time>2011-05-27T22:10:06Z</time>
      </trkpt>
      <trkpt lat="45.8924" lon="6.18906">
        <ele>1243</ele>
        <time>2011-05-27T22:10:27Z</time>
      </trkpt>
      <trkpt lat="45.8928" lon="6.18899">
        <ele>1243</ele>
        <time>2011-05-27T22:10:54Z</time>
      </trkpt>
      <trkpt lat="45.8938" lon="6.18846">
        <ele>1245</ele>
        <time>2011-05-27T22:12:08Z</time>
      </trkpt>
      <trkpt lat="45.895" lon="6.18795">
        <ele>1244</ele>
        <time>2011-05-27T22:13:20Z</time>
      </trkpt>
      <trkpt lat="45.8954" lon="6.18767">
        <ele>1242</ele>
        <time>2011-05-27T22:13:56Z</time>
      </trkpt>
      <trkpt lat="45.8959" lon="6.18735">
        <ele>1263</ele>
        <time>2011-05-27T22:16:12Z</time>
      </trkpt>
      <trkpt lat="45.8964" lon="6.18699">
        <ele>1282</ele>
        <time>2011-05-27T22:18:16Z</time>
      </trkpt>
      <trkpt lat="45.8967" lon="6.18685">
        <ele>1282</ele>
        <time>2011-05-27T22:18:38Z</time>
      </trkpt>
      <trkpt lat="45.8969" lon="6.18634">
        <ele>1232.63</ele>
        <time>2011-05-27T22:19:49Z</time>
      </trkpt>
      <trkpt lat="45.8971" lon="6.18575">
        <ele>1280</ele>
        <time>2011-05-27T22:22:41Z</time>
      </trkpt>
      <trkpt lat="45.8976" lon="6.18543">
        <ele>1280</ele>
        <time>2011-05-27T22:23:18Z</time>
      </trkpt>
      <trkpt lat="45.8984" lon="6.18507">
        <ele>1271</ele>
        <time>2011-05-27T22:24:06Z</time>
      </trkpt>
      <trkpt lat="45.899" lon="6.18454">
        <ele>1253</ele>
        <time>2011-05-27T22:25:10Z</time>
      </trkpt>
      <trkpt lat="45.8999" lon="6.18362">
        <ele>1261</ele>
        <time>2011-05-27T22:26:42Z</time>
      </trkpt>
      <trkpt lat="45.9007" lon="6.18264">
        <ele>1280</ele>
        <time>2011-05-27T22:28:54Z</time>
      </trkpt>
      <trkpt lat="45.901" lon="6.18135">
        <ele>1248</ele>
        <time>2011-05-27T22:30:48Z</time>
      </trkpt>
      <trkpt lat="45.9011" lon="6.18074">
        <ele>1164</ele>
        <time>2011-05-27T22:32:14Z</time>
      </trkpt>
      <trkpt lat="45.9015" lon="6.18041">
        <ele>1249</ele>
        <time>2011-05-27T22:35:02Z</time>
      </trkpt>
      <trkpt lat="45.9019" lon="6.17985">
        <ele>1249</ele>
        <time>2011-05-27T22:35:34Z</time>
      </trkpt>
      <trkpt lat="45.902" lon="6.17907">
        <ele>1259</ele>
        <time>2011-05-27T22:36:45Z</time>
      </trkpt>
      <trkpt lat="45.9022" lon="6.17847">
        <ele>1250</ele>
        <time>2011-05-27T22:37:19Z</time>
      </trkpt>
      <trkpt lat="45.9022" lon="6.17797">
        <ele>1250</ele>
        <time>2011-05-27T22:37:46Z</time>
      </trkpt>
      <trkpt lat="45.9026" lon="6.17686">
        <ele>1188</ele>
        <time>2011-05-27T22:40:18Z</time>
      </trkpt>
      <trkpt lat="45.9034" lon="6.17617">
        <ele>1201</ele>
        <time>2011-05-27T22:41:56Z</time>
      </trkpt>
      <trkpt lat="45.9037" lon="6.17564">
        <ele>1201</ele>
        <time>2011-05-27T22:42:25Z</time>
      </trkpt>
      <trkpt lat="45.9031" lon="6.17476">
        <ele>1168</ele>
        <time>2011-05-27T22:44:24Z</time>
      </trkpt>
      <trkpt lat="45.9034" lon="6.17408">
        <ele>1148</ele>
        <time>2011-05-27T22:45:36Z</time>
      </trkpt>
      <trkpt lat="45.9039" lon="6.17399">
        <ele>1159</ele>
        <time>2011-05-27T22:46:51Z</time>
      </trkpt>
      <trkpt lat="45.9044" lon="6.17411">
        <ele>1159</ele>
        <time>2011-05-27T22:47:19Z</time>
      </trkpt>
      <trkpt lat="45.9049" lon="6.17437">
        <ele>1113</ele>
        <time>2011-05-27T22:49:00Z</time>
      </trkpt>
      <trkpt lat="45.9053" lon="6.1747">
        <ele>1133</ele>
        <time>2011-05-27T22:51:09Z</time>
      </trkpt>
      <trkpt lat="45.9054" lon="6.17413">
        <ele>1062</ele>
        <time>2011-05-27T22:52:22Z</time>
      </trkpt>
      <trkpt lat="45.9057" lon="6.17338">
        <ele>1044</ele>
        <time>2011-05-27T22:53:27Z</time>
      </trkpt>
      <trkpt lat="45.9055" lon="6.17285">
        <ele>1007</ele>
        <time>2011-05-27T22:54:36Z</time>
      </trkpt>
      <trkpt lat="45.9058" lon="6.17234">
        <ele>1007</ele>
        <time>2011-05-27T22:55:17Z</time>
      </trkpt>
      <trkpt lat="45.9064" lon="6.17277">
        <ele>987</ele>
        <time>2011-05-27T22:56:28Z</time>
      </trkpt>
      <trkpt lat="45.9067" lon="6.17287">
        <ele>987</ele>
        <time>2011-05-27T22:56:51Z</time>
      </trkpt>
      <trkpt lat="45.9071" lon="6.17337">
        <ele>966</ele>
        <time>2011-05-27T22:58:07Z</time>
      </trkpt>
      <trkpt lat="45.9077" lon="6.17347">
        <ele>966</ele>
        <time>2011-05-27T22:58:44Z</time>
      </trkpt>
      <trkpt lat="45.9077" lon="6.17266">
        <ele>948</ele>
        <time>2011-05-27T22:59:50Z</time>
      </trkpt>
      <trkpt lat="45.9082" lon="6.17267">
        <ele>932</ele>
        <time>2011-05-27T23:00:47Z</time>
      </trkpt>
      <trkpt lat="45.9079" lon="6.1716">
        <ele>922</ele>
        <time>2011-05-27T23:01:37Z</time>
      </trkpt>
      <trkpt lat="45.9077" lon="6.17116">
        <ele>900</ele>
        <time>2011-05-27T23:02:43Z</time>
      </trkpt>
      <trkpt lat="45.9074" lon="6.17076">
        <ele>900</ele>
        <time>2011-05-27T23:03:09Z</time>
      </trkpt>
      <trkpt lat="45.9072" lon="6.17029">
        <ele>877</ele>
        <time>2011-05-27T23:04:20Z</time>
      </trkpt>
      <trkpt lat="45.907" lon="6.16991">
        <ele>859</ele>
        <time>2011-05-27T23:05:23Z</time>
      </trkpt>
      <trkpt lat="45.9067" lon="6.1697">
        <ele>859</ele>
        <time>2011-05-27T23:05:46Z</time>
      </trkpt>
      <trkpt lat="45.9066" lon="6.16955">
        <ele>821</ele>
        <time>2011-05-27T23:07:11Z</time>
      </trkpt>
      <trkpt lat="45.9067" lon="6.16895">
        <ele>821</ele>
        <time>2011-05-27T23:07:39Z</time>
      </trkpt>
      <trkpt lat="45.9068" lon="6.16845">
        <ele>778</ele>
        <time>2011-05-27T23:08:49Z</time>
      </trkpt>
      <trkpt lat="45.9064" lon="6.16812">
        <ele>778</ele>
        <time>2011-05-27T23:09:19Z</time>
      </trkpt>
      <trkpt lat="45.9062" lon="6.16802">
        <ele>768</ele>
        <time>2011-05-27T23:09:55Z</time>
      </trkpt>
      <trkpt lat="45.9062" lon="6.16774">
        <ele>730</ele>
        <time>2011-05-27T23:11:01Z</time>
      </trkpt>
      <trkpt lat="45.9065" lon="6.16728">
        <ele>742</ele>
        <time>2011-05-27T23:12:20Z</time>
      </trkpt>
      <trkpt lat="45.9062" lon="6.16696">
        <ele>694</ele>
        <time>2011-05-27T23:13:30Z</time>
      </trkpt>
      <trkpt lat="45.9059" lon="6.16675">
        <ele>694</ele>
        <time>2011-05-27T23:13:53Z</time>
      </trkpt>
      <trkpt lat="45.9056" lon="6.16609">
        <ele>631</ele>
        <time>2011-05-27T23:15:54Z</time>
      </trkpt>
      <trkpt lat="45.9053" lon="6.16568">
        <ele>653</ele>
        <time>2011-05-27T23:18:07Z</time>
      </trkpt>
      <trkpt lat="45.9049" lon="6.16509">
        <ele>594</ele>
        <time>2011-05-27T23:19:53Z</time>
      </trkpt>
      <trkpt lat="45.905" lon="6.16481">
        <ele>594</ele>
        <time>2011-05-27T23:20:32Z</time>
      </trkpt>
      <trkpt lat="45.9053" lon="6.16446">
        <ele>549</ele>
        <time>2011-05-27T23:22:10Z</time>
      </trkpt>
      <trkpt lat="45.905" lon="6.16423">
        <ele>549</ele>
        <time>2011-05-27T23:22:33Z</time>
      </trkpt>
      <trkpt lat="45.9046" lon="6.16388">
        <ele>549</ele>
        <time>2011-05-27T23:23:01Z</time>
      </trkpt>
      <trkpt lat="45.905" lon="6.16337">
        <ele>513</ele>
        <time>2011-05-27T23:25:04Z</time>
      </trkpt>
      <trkpt lat="45.9047" lon="6.16306">
        <ele>513</ele>
        <time>2011-05-27T23:25:44Z</time>
      </trkpt>
      <trkpt lat="45.9045" lon="6.16217">
        <ele>495</ele>
        <time>2011-05-27T23:26:49Z</time>
      </trkpt>
      <trkpt lat="45.9041" lon="6.16141">
        <ele>476</ele>
        <time>2011-05-27T23:27:57Z</time>
      </trkpt>
      <trkpt lat="45.9039" lon="6.16082">
        <ele>463</ele>
        <time>2011-05-27T23:28:43Z</time>
      </trkpt>
      <trkpt lat="45.9039" lon="6.1598">
        <ele>453</ele>
        <time>2011-05-27T23:29:30Z</time>
      </trkpt>
      <trkpt lat="45.9044" lon="6.15941">
        <ele>448</ele>
        <time>2011-05-27T23:30:07Z</time>
      </trkpt>
      <trkpt lat="45.9052" lon="6.15854">
        <ele>449</ele>
        <time>2011-05-27T23:31:10Z</time>
      </trkpt>
      <trkpt lat="45.9057" lon="6.15711">
        <ele>449</ele>
        <time>2011-05-27T23:32:22Z</time>
      </trkpt>
      <trkpt lat="45.9058" lon="6.15563">
        <ele>449</ele>
        <time>2011-05-27T23:33:29Z</time>
      </trkpt>
      <trkpt lat="45.9051" lon="6.15004">
        <ele>450</ele>
        <time>2011-05-27T23:37:44Z</time>
      </trkpt>
      <trkpt lat="45.9048" lon="6.14892">
        <ele>451</ele>
        <time>2011-05-27T23:38:41Z</time>
      </trkpt>
      <trkpt lat="45.9047" lon="6.15025">
        <ele>450</ele>
        <time>2011-05-27T23:40:00Z</time>
      </trkpt>
    </trkseg>
  </trk>
</gpx>